<?xml version="1.0" encoding="UTF-8" standalone="no" ?>
<gpx xmlns="http://www.topografix.com/GPX/1/1" xmlns:xsi="http://www.w3.org/2001/XMLSchema-instance" xsi:schemaLocation="http://www.topografix.com/GPX/1/1 http://www.topografix.com/GPX/1/1/gpx.xsd" version="1.1" creator="VisuGPX - https://www.visugpx.com">
  <metadata>
    <name>Randonnée GR5</name>
    <desc><![CDATA[Etape du refuge de Nice à Madone de Fenestre]]></desc>
  </metadata>
  <wpt lat="44.10427" lon="7.40015">
    <ele>2140</ele>
  </wpt>
  <trk>
    <name><![CDATA[Randonnée GR5_1]]></name>
    <trkseg>
      <trkpt lat="44.10427" lon="7.40015">
        <ele>2140</ele>
        <time>2013-08-28T05:58:32Z</time>
      </trkpt>
      <trkpt lat="44.10441" lon="7.40031">
        <ele>2140</ele>
        <time>2013-08-28T05:58:33Z</time>
      </trkpt>
      <trkpt lat="44.10439" lon="7.39994">
        <ele>2140</ele>
        <time>2013-08-28T05:58:36Z</time>
      </trkpt>
      <trkpt lat="44.10429" lon="7.40007">
        <ele>2140</ele>
        <time>2013-08-28T05:58:37Z</time>
      </trkpt>
      <trkpt lat="44.10428" lon="7.40021">
        <ele>2140</ele>
        <time>2013-08-28T05:58:38Z</time>
      </trkpt>
      <trkpt lat="44.10439" lon="7.40023">
        <ele>2140</ele>
        <time>2013-08-28T05:58:39Z</time>
      </trkpt>
      <trkpt lat="44.10428" lon="7.40022">
        <ele>2140</ele>
        <time>2013-08-28T05:58:40Z</time>
      </trkpt>
      <trkpt lat="44.10439" lon="7.4001">
        <ele>2140</ele>
        <time>2013-08-28T05:58:44Z</time>
      </trkpt>
      <trkpt lat="44.10424" lon="7.40018">
        <ele>2140</ele>
        <time>2013-08-28T05:58:47Z</time>
      </trkpt>
      <trkpt lat="44.10433" lon="7.40012">
        <ele>2140</ele>
        <time>2013-08-28T05:58:57Z</time>
      </trkpt>
      <trkpt lat="44.10423" lon="7.40018">
        <ele>2140</ele>
        <time>2013-08-28T05:59:16Z</time>
      </trkpt>
      <trkpt lat="44.10411" lon="7.40023">
        <ele>2140</ele>
        <time>2013-08-28T05:59:18Z</time>
      </trkpt>
      <trkpt lat="44.10424" lon="7.40018">
        <ele>2140</ele>
        <time>2013-08-28T05:59:22Z</time>
      </trkpt>
      <trkpt lat="44.10411" lon="7.40024">
        <ele>2140</ele>
        <time>2013-08-28T05:59:23Z</time>
      </trkpt>
      <trkpt lat="44.1043" lon="7.40014">
        <ele>2140</ele>
        <time>2013-08-28T05:59:24Z</time>
      </trkpt>
      <trkpt lat="44.10413" lon="7.40023">
        <ele>2140</ele>
        <time>2013-08-28T05:59:31Z</time>
      </trkpt>
      <trkpt lat="44.10422" lon="7.40019">
        <ele>2140</ele>
        <time>2013-08-28T05:59:42Z</time>
      </trkpt>
      <trkpt lat="44.10432" lon="7.40013">
        <ele>2140</ele>
        <time>2013-08-28T05:59:57Z</time>
      </trkpt>
      <trkpt lat="44.10398" lon="7.40005">
        <ele>2140</ele>
        <time>2013-08-28T06:00:36Z</time>
      </trkpt>
      <trkpt lat="44.10384" lon="7.40002">
        <ele>2140</ele>
        <time>2013-08-28T06:00:37Z</time>
      </trkpt>
      <trkpt lat="44.10367" lon="7.40002">
        <ele>2140</ele>
        <time>2013-08-28T06:00:38Z</time>
      </trkpt>
      <trkpt lat="44.10347" lon="7.40005">
        <ele>2140</ele>
        <time>2013-08-28T06:00:39Z</time>
      </trkpt>
      <trkpt lat="44.10375" lon="7.39997">
        <ele>2140</ele>
        <time>2013-08-28T06:00:40Z</time>
      </trkpt>
      <trkpt lat="44.10391" lon="7.40002">
        <ele>2140</ele>
        <time>2013-08-28T06:00:41Z</time>
      </trkpt>
      <trkpt lat="44.1041" lon="7.40003">
        <ele>2140</ele>
        <time>2013-08-28T06:00:42Z</time>
      </trkpt>
      <trkpt lat="44.10378" lon="7.40001">
        <ele>2140</ele>
        <time>2013-08-28T06:00:48Z</time>
      </trkpt>
      <trkpt lat="44.10388" lon="7.40025">
        <ele>2140</ele>
        <time>2013-08-28T06:00:49Z</time>
      </trkpt>
      <trkpt lat="44.10391" lon="7.40037">
        <ele>2140</ele>
        <time>2013-08-28T06:01:10Z</time>
      </trkpt>
      <trkpt lat="44.10397" lon="7.40019">
        <ele>2140</ele>
        <time>2013-08-28T06:01:12Z</time>
      </trkpt>
      <trkpt lat="44.10413" lon="7.40012">
        <ele>2140</ele>
        <time>2013-08-28T06:01:13Z</time>
      </trkpt>
      <trkpt lat="44.1044" lon="7.39994">
        <ele>2140</ele>
        <time>2013-08-28T06:01:14Z</time>
      </trkpt>
      <trkpt lat="44.1046" lon="7.40011">
        <ele>2140</ele>
        <time>2013-08-28T06:01:15Z</time>
      </trkpt>
      <trkpt lat="44.10461" lon="7.39993">
        <ele>2140</ele>
        <time>2013-08-28T06:01:17Z</time>
      </trkpt>
      <trkpt lat="44.10393" lon="7.4004">
        <ele>2140</ele>
        <time>2013-08-28T06:01:34Z</time>
      </trkpt>
      <trkpt lat="44.10378" lon="7.4003">
        <ele>2140</ele>
        <time>2013-08-28T06:01:36Z</time>
      </trkpt>
      <trkpt lat="44.10342" lon="7.40027">
        <ele>2140</ele>
        <time>2013-08-28T06:01:37Z</time>
      </trkpt>
      <trkpt lat="44.10438" lon="7.40011">
        <ele>2140</ele>
        <time>2013-08-28T06:02:13Z</time>
      </trkpt>
      <trkpt lat="44.10426" lon="7.40033">
        <ele>2140</ele>
        <time>2013-08-28T06:02:14Z</time>
      </trkpt>
      <trkpt lat="44.10404" lon="7.4002">
        <ele>2140</ele>
        <time>2013-08-28T06:02:15Z</time>
      </trkpt>
      <trkpt lat="44.10386" lon="7.40034">
        <ele>2140</ele>
        <time>2013-08-28T06:02:16Z</time>
      </trkpt>
      <trkpt lat="44.10411" lon="7.40032">
        <ele>2140</ele>
        <time>2013-08-28T06:02:18Z</time>
      </trkpt>
      <trkpt lat="44.10397" lon="7.40041">
        <ele>2140</ele>
        <time>2013-08-28T06:02:19Z</time>
      </trkpt>
      <trkpt lat="44.10407" lon="7.40028">
        <ele>2140</ele>
        <time>2013-08-28T06:02:21Z</time>
      </trkpt>
      <trkpt lat="44.10422" lon="7.40027">
        <ele>2140</ele>
        <time>2013-08-28T06:02:23Z</time>
      </trkpt>
      <trkpt lat="44.10412" lon="7.4002">
        <ele>2140</ele>
        <time>2013-08-28T06:02:24Z</time>
      </trkpt>
      <trkpt lat="44.10427" lon="7.40024">
        <ele>2140</ele>
        <time>2013-08-28T06:02:25Z</time>
      </trkpt>
      <trkpt lat="44.10412" lon="7.40021">
        <ele>2140</ele>
        <time>2013-08-28T06:02:28Z</time>
      </trkpt>
      <trkpt lat="44.10442" lon="7.40018">
        <ele>2140</ele>
        <time>2013-08-28T06:02:30Z</time>
      </trkpt>
      <trkpt lat="44.10416" lon="7.40023">
        <ele>2140</ele>
        <time>2013-08-28T06:02:35Z</time>
      </trkpt>
      <trkpt lat="44.10428" lon="7.40023">
        <ele>2140</ele>
        <time>2013-08-28T06:02:36Z</time>
      </trkpt>
      <trkpt lat="44.1044" lon="7.40033">
        <ele>2140</ele>
        <time>2013-08-28T06:02:49Z</time>
      </trkpt>
      <trkpt lat="44.10428" lon="7.40031">
        <ele>2140</ele>
        <time>2013-08-28T06:02:50Z</time>
      </trkpt>
      <trkpt lat="44.10443" lon="7.40014">
        <ele>2140</ele>
        <time>2013-08-28T06:02:51Z</time>
      </trkpt>
      <trkpt lat="44.10433" lon="7.40012">
        <ele>2140</ele>
        <time>2013-08-28T06:02:53Z</time>
      </trkpt>
      <trkpt lat="44.10433" lon="7.40033">
        <ele>2140</ele>
        <time>2013-08-28T06:03:02Z</time>
      </trkpt>
      <trkpt lat="44.10424" lon="7.40013">
        <ele>2140</ele>
        <time>2013-08-28T06:03:03Z</time>
      </trkpt>
      <trkpt lat="44.1041" lon="7.40021">
        <ele>2140</ele>
        <time>2013-08-28T06:03:23Z</time>
      </trkpt>
      <trkpt lat="44.1042" lon="7.4002">
        <ele>2140</ele>
        <time>2013-08-28T06:03:25Z</time>
      </trkpt>
      <trkpt lat="44.10428" lon="7.40015">
        <ele>2140</ele>
        <time>2013-08-28T06:03:42Z</time>
      </trkpt>
      <trkpt lat="44.10419" lon="7.39985">
        <ele>2140</ele>
        <time>2013-08-28T06:03:49Z</time>
      </trkpt>
      <trkpt lat="44.10449" lon="7.40009">
        <ele>2265</ele>
        <time>2013-08-28T06:03:50Z</time>
      </trkpt>
      <trkpt lat="44.1045" lon="7.40022">
        <ele>2251</ele>
        <time>2013-08-28T06:04:04Z</time>
      </trkpt>
      <trkpt lat="44.10445" lon="7.40035">
        <ele>2243</ele>
        <time>2013-08-28T06:04:10Z</time>
      </trkpt>
      <trkpt lat="44.10444" lon="7.40047">
        <ele>2233</ele>
        <time>2013-08-28T06:04:22Z</time>
      </trkpt>
      <trkpt lat="44.10445" lon="7.4006">
        <ele>2233</ele>
        <time>2013-08-28T06:04:35Z</time>
      </trkpt>
      <trkpt lat="44.10437" lon="7.40066">
        <ele>2226</ele>
        <time>2013-08-28T06:04:57Z</time>
      </trkpt>
      <trkpt lat="44.10446" lon="7.40065">
        <ele>2226</ele>
        <time>2013-08-28T06:05:03Z</time>
      </trkpt>
      <trkpt lat="44.10455" lon="7.40065">
        <ele>2219</ele>
        <time>2013-08-28T06:05:07Z</time>
      </trkpt>
      <trkpt lat="44.10464" lon="7.40069">
        <ele>2219</ele>
        <time>2013-08-28T06:05:16Z</time>
      </trkpt>
      <trkpt lat="44.10473" lon="7.40069">
        <ele>2212</ele>
        <time>2013-08-28T06:05:23Z</time>
      </trkpt>
      <trkpt lat="44.1048" lon="7.40059">
        <ele>2212</ele>
        <time>2013-08-28T06:05:31Z</time>
      </trkpt>
      <trkpt lat="44.10472" lon="7.40052">
        <ele>2212</ele>
        <time>2013-08-28T06:05:39Z</time>
      </trkpt>
      <trkpt lat="44.10481" lon="7.40056">
        <ele>2220</ele>
        <time>2013-08-28T06:06:11Z</time>
      </trkpt>
      <trkpt lat="44.1049" lon="7.40056">
        <ele>2220</ele>
        <time>2013-08-28T06:06:19Z</time>
      </trkpt>
      <trkpt lat="44.105" lon="7.40059">
        <ele>2214</ele>
        <time>2013-08-28T06:06:32Z</time>
      </trkpt>
      <trkpt lat="44.10509" lon="7.40056">
        <ele>2208</ele>
        <time>2013-08-28T06:06:38Z</time>
      </trkpt>
      <trkpt lat="44.10518" lon="7.40054">
        <ele>2196</ele>
        <time>2013-08-28T06:06:54Z</time>
      </trkpt>
      <trkpt lat="44.10516" lon="7.40041">
        <ele>2196</ele>
        <time>2013-08-28T06:07:08Z</time>
      </trkpt>
      <trkpt lat="44.10521" lon="7.40029">
        <ele>2186</ele>
        <time>2013-08-28T06:07:25Z</time>
      </trkpt>
      <trkpt lat="44.10521" lon="7.40016">
        <ele>2191</ele>
        <time>2013-08-28T06:07:33Z</time>
      </trkpt>
      <trkpt lat="44.10518" lon="7.40004">
        <ele>2191</ele>
        <time>2013-08-28T06:07:42Z</time>
      </trkpt>
      <trkpt lat="44.10512" lon="7.39995">
        <ele>2205</ele>
        <time>2013-08-28T06:07:53Z</time>
      </trkpt>
      <trkpt lat="44.10506" lon="7.39985">
        <ele>2205</ele>
        <time>2013-08-28T06:08:18Z</time>
      </trkpt>
      <trkpt lat="44.10505" lon="7.39973">
        <ele>2195</ele>
        <time>2013-08-28T06:08:30Z</time>
      </trkpt>
      <trkpt lat="44.10502" lon="7.39961">
        <ele>2195</ele>
        <time>2013-08-28T06:08:39Z</time>
      </trkpt>
      <trkpt lat="44.10504" lon="7.39949">
        <ele>2185</ele>
        <time>2013-08-28T06:08:47Z</time>
      </trkpt>
      <trkpt lat="44.10507" lon="7.39937">
        <ele>2185</ele>
        <time>2013-08-28T06:08:54Z</time>
      </trkpt>
      <trkpt lat="44.10505" lon="7.39924">
        <ele>2196</ele>
        <time>2013-08-28T06:09:04Z</time>
      </trkpt>
      <trkpt lat="44.10505" lon="7.39912">
        <ele>2196</ele>
        <time>2013-08-28T06:09:15Z</time>
      </trkpt>
      <trkpt lat="44.10502" lon="7.399">
        <ele>2196</ele>
        <time>2013-08-28T06:09:23Z</time>
      </trkpt>
      <trkpt lat="44.10498" lon="7.39889">
        <ele>2196</ele>
        <time>2013-08-28T06:09:32Z</time>
      </trkpt>
      <trkpt lat="44.10494" lon="7.39878">
        <ele>2196</ele>
        <time>2013-08-28T06:09:43Z</time>
      </trkpt>
      <trkpt lat="44.10491" lon="7.39866">
        <ele>2203</ele>
        <time>2013-08-28T06:09:59Z</time>
      </trkpt>
      <trkpt lat="44.10487" lon="7.39855">
        <ele>2203</ele>
        <time>2013-08-28T06:10:14Z</time>
      </trkpt>
      <trkpt lat="44.10484" lon="7.39842">
        <ele>2193</ele>
        <time>2013-08-28T06:10:25Z</time>
      </trkpt>
      <trkpt lat="44.10481" lon="7.39829">
        <ele>2201</ele>
        <time>2013-08-28T06:11:38Z</time>
      </trkpt>
      <trkpt lat="44.10483" lon="7.39817">
        <ele>2201</ele>
        <time>2013-08-28T06:11:46Z</time>
      </trkpt>
      <trkpt lat="44.10477" lon="7.39806">
        <ele>2194</ele>
        <time>2013-08-28T06:11:56Z</time>
      </trkpt>
      <trkpt lat="44.10476" lon="7.39792">
        <ele>2194</ele>
        <time>2013-08-28T06:12:06Z</time>
      </trkpt>
      <trkpt lat="44.10476" lon="7.39779">
        <ele>2184</ele>
        <time>2013-08-28T06:12:17Z</time>
      </trkpt>
      <trkpt lat="44.10476" lon="7.39766">
        <ele>2184</ele>
        <time>2013-08-28T06:12:26Z</time>
      </trkpt>
      <trkpt lat="44.10479" lon="7.39755">
        <ele>2184</ele>
        <time>2013-08-28T06:12:38Z</time>
      </trkpt>
      <trkpt lat="44.10479" lon="7.39741">
        <ele>2176</ele>
        <time>2013-08-28T06:12:48Z</time>
      </trkpt>
      <trkpt lat="44.10474" lon="7.39731">
        <ele>2176</ele>
        <time>2013-08-28T06:12:59Z</time>
      </trkpt>
      <trkpt lat="44.10465" lon="7.39729">
        <ele>2176</ele>
        <time>2013-08-28T06:13:10Z</time>
      </trkpt>
      <trkpt lat="44.10455" lon="7.39727">
        <ele>2186</ele>
        <time>2013-08-28T06:13:22Z</time>
      </trkpt>
      <trkpt lat="44.10447" lon="7.39732">
        <ele>2205</ele>
        <time>2013-08-28T06:13:32Z</time>
      </trkpt>
      <trkpt lat="44.1045" lon="7.3972">
        <ele>2205</ele>
        <time>2013-08-28T06:14:49Z</time>
      </trkpt>
      <trkpt lat="44.1045" lon="7.39707">
        <ele>2205</ele>
        <time>2013-08-28T06:15:02Z</time>
      </trkpt>
      <trkpt lat="44.10451" lon="7.39694">
        <ele>2199</ele>
        <time>2013-08-28T06:15:12Z</time>
      </trkpt>
      <trkpt lat="44.10454" lon="7.39682">
        <ele>2199</ele>
        <time>2013-08-28T06:15:24Z</time>
      </trkpt>
      <trkpt lat="44.10448" lon="7.3967">
        <ele>2193</ele>
        <time>2013-08-28T06:15:40Z</time>
      </trkpt>
      <trkpt lat="44.10443" lon="7.3966">
        <ele>2193</ele>
        <time>2013-08-28T06:15:54Z</time>
      </trkpt>
      <trkpt lat="44.10438" lon="7.3965">
        <ele>2193</ele>
        <time>2013-08-28T06:16:03Z</time>
      </trkpt>
      <trkpt lat="44.10431" lon="7.39642">
        <ele>2193</ele>
        <time>2013-08-28T06:16:18Z</time>
      </trkpt>
      <trkpt lat="44.10422" lon="7.3964">
        <ele>2193</ele>
        <time>2013-08-28T06:16:30Z</time>
      </trkpt>
      <trkpt lat="44.10413" lon="7.39638">
        <ele>2193</ele>
        <time>2013-08-28T06:16:38Z</time>
      </trkpt>
      <trkpt lat="44.10404" lon="7.39634">
        <ele>2193</ele>
        <time>2013-08-28T06:16:49Z</time>
      </trkpt>
      <trkpt lat="44.10395" lon="7.39627">
        <ele>2193</ele>
        <time>2013-08-28T06:17:03Z</time>
      </trkpt>
      <trkpt lat="44.10386" lon="7.39627">
        <ele>2203</ele>
        <time>2013-08-28T06:17:12Z</time>
      </trkpt>
      <trkpt lat="44.10378" lon="7.39621">
        <ele>2197</ele>
        <time>2013-08-28T06:17:26Z</time>
      </trkpt>
      <trkpt lat="44.10369" lon="7.39623">
        <ele>2197</ele>
        <time>2013-08-28T06:17:38Z</time>
      </trkpt>
      <trkpt lat="44.10359" lon="7.39622">
        <ele>2197</ele>
        <time>2013-08-28T06:17:50Z</time>
      </trkpt>
      <trkpt lat="44.1035" lon="7.39623">
        <ele>2197</ele>
        <time>2013-08-28T06:18:00Z</time>
      </trkpt>
      <trkpt lat="44.10341" lon="7.39621">
        <ele>2197</ele>
        <time>2013-08-28T06:18:10Z</time>
      </trkpt>
      <trkpt lat="44.10333" lon="7.39614">
        <ele>2197</ele>
        <time>2013-08-28T06:18:19Z</time>
      </trkpt>
      <trkpt lat="44.10324" lon="7.39613">
        <ele>2191</ele>
        <time>2013-08-28T06:18:34Z</time>
      </trkpt>
      <trkpt lat="44.10316" lon="7.39607">
        <ele>2191</ele>
        <time>2013-08-28T06:18:44Z</time>
      </trkpt>
      <trkpt lat="44.10307" lon="7.39606">
        <ele>2191</ele>
        <time>2013-08-28T06:18:59Z</time>
      </trkpt>
      <trkpt lat="44.10298" lon="7.39603">
        <ele>2191</ele>
        <time>2013-08-28T06:19:07Z</time>
      </trkpt>
      <trkpt lat="44.10289" lon="7.396">
        <ele>2191</ele>
        <time>2013-08-28T06:19:20Z</time>
      </trkpt>
      <trkpt lat="44.10279" lon="7.39596">
        <ele>2191</ele>
        <time>2013-08-28T06:19:31Z</time>
      </trkpt>
      <trkpt lat="44.1027" lon="7.396">
        <ele>2197</ele>
        <time>2013-08-28T06:19:43Z</time>
      </trkpt>
      <trkpt lat="44.10262" lon="7.39596">
        <ele>2197</ele>
        <time>2013-08-28T06:19:51Z</time>
      </trkpt>
      <trkpt lat="44.10255" lon="7.39587">
        <ele>2197</ele>
        <time>2013-08-28T06:20:01Z</time>
      </trkpt>
      <trkpt lat="44.10248" lon="7.3958">
        <ele>2197</ele>
        <time>2013-08-28T06:20:16Z</time>
      </trkpt>
      <trkpt lat="44.10237" lon="7.39581">
        <ele>2197</ele>
        <time>2013-08-28T06:20:30Z</time>
      </trkpt>
      <trkpt lat="44.1023" lon="7.39589">
        <ele>2197</ele>
        <time>2013-08-28T06:20:37Z</time>
      </trkpt>
      <trkpt lat="44.1022" lon="7.39588">
        <ele>2197</ele>
        <time>2013-08-28T06:20:49Z</time>
      </trkpt>
      <trkpt lat="44.10211" lon="7.3959">
        <ele>2197</ele>
        <time>2013-08-28T06:21:13Z</time>
      </trkpt>
      <trkpt lat="44.10202" lon="7.39586">
        <ele>2197</ele>
        <time>2013-08-28T06:21:19Z</time>
      </trkpt>
      <trkpt lat="44.10194" lon="7.39593">
        <ele>2197</ele>
        <time>2013-08-28T06:21:31Z</time>
      </trkpt>
      <trkpt lat="44.10185" lon="7.39596">
        <ele>2189</ele>
        <time>2013-08-28T06:22:11Z</time>
      </trkpt>
      <trkpt lat="44.10175" lon="7.39598">
        <ele>2189</ele>
        <time>2013-08-28T06:22:21Z</time>
      </trkpt>
      <trkpt lat="44.10165" lon="7.39597">
        <ele>2196</ele>
        <time>2013-08-28T06:22:29Z</time>
      </trkpt>
      <trkpt lat="44.10156" lon="7.396">
        <ele>2203</ele>
        <time>2013-08-28T06:22:37Z</time>
      </trkpt>
      <trkpt lat="44.10146" lon="7.39602">
        <ele>2215</ele>
        <time>2013-08-28T06:22:50Z</time>
      </trkpt>
      <trkpt lat="44.10137" lon="7.39605">
        <ele>2209</ele>
        <time>2013-08-28T06:23:03Z</time>
      </trkpt>
      <trkpt lat="44.10128" lon="7.39604">
        <ele>2201</ele>
        <time>2013-08-28T06:23:29Z</time>
      </trkpt>
      <trkpt lat="44.10119" lon="7.39602">
        <ele>2201</ele>
        <time>2013-08-28T06:23:57Z</time>
      </trkpt>
      <trkpt lat="44.1011" lon="7.39607">
        <ele>2201</ele>
        <time>2013-08-28T06:24:05Z</time>
      </trkpt>
      <trkpt lat="44.10101" lon="7.39611">
        <ele>2209</ele>
        <time>2013-08-28T06:25:16Z</time>
      </trkpt>
      <trkpt lat="44.10094" lon="7.39619">
        <ele>2209</ele>
        <time>2013-08-28T06:25:30Z</time>
      </trkpt>
      <trkpt lat="44.10092" lon="7.39631">
        <ele>2209</ele>
        <time>2013-08-28T06:26:40Z</time>
      </trkpt>
      <trkpt lat="44.10083" lon="7.39636">
        <ele>2203</ele>
        <time>2013-08-28T06:27:01Z</time>
      </trkpt>
      <trkpt lat="44.10074" lon="7.39635">
        <ele>2203</ele>
        <time>2013-08-28T06:27:33Z</time>
      </trkpt>
      <trkpt lat="44.10066" lon="7.39631">
        <ele>2203</ele>
        <time>2013-08-28T06:28:00Z</time>
      </trkpt>
      <trkpt lat="44.10057" lon="7.39626">
        <ele>2203</ele>
        <time>2013-08-28T06:28:08Z</time>
      </trkpt>
      <trkpt lat="44.10047" lon="7.39627">
        <ele>2195</ele>
        <time>2013-08-28T06:28:18Z</time>
      </trkpt>
      <trkpt lat="44.10039" lon="7.39632">
        <ele>2195</ele>
        <time>2013-08-28T06:28:26Z</time>
      </trkpt>
      <trkpt lat="44.1003" lon="7.39633">
        <ele>2201</ele>
        <time>2013-08-28T06:28:34Z</time>
      </trkpt>
      <trkpt lat="44.1002" lon="7.39631">
        <ele>2196</ele>
        <time>2013-08-28T06:28:46Z</time>
      </trkpt>
      <trkpt lat="44.1001" lon="7.39633">
        <ele>2196</ele>
        <time>2013-08-28T06:28:54Z</time>
      </trkpt>
      <trkpt lat="44.10001" lon="7.39638">
        <ele>2196</ele>
        <time>2013-08-28T06:29:02Z</time>
      </trkpt>
      <trkpt lat="44.09993" lon="7.39641">
        <ele>2196</ele>
        <time>2013-08-28T06:29:11Z</time>
      </trkpt>
      <trkpt lat="44.09985" lon="7.39633">
        <ele>2186</ele>
        <time>2013-08-28T06:29:22Z</time>
      </trkpt>
      <trkpt lat="44.09975" lon="7.39632">
        <ele>2186</ele>
        <time>2013-08-28T06:29:28Z</time>
      </trkpt>
      <trkpt lat="44.09965" lon="7.39636">
        <ele>2186</ele>
        <time>2013-08-28T06:29:41Z</time>
      </trkpt>
      <trkpt lat="44.09956" lon="7.39641">
        <ele>2177</ele>
        <time>2013-08-28T06:29:56Z</time>
      </trkpt>
      <trkpt lat="44.09946" lon="7.39639">
        <ele>2177</ele>
        <time>2013-08-28T06:30:07Z</time>
      </trkpt>
      <trkpt lat="44.09946" lon="7.39652">
        <ele>2171</ele>
        <time>2013-08-28T06:30:22Z</time>
      </trkpt>
      <trkpt lat="44.09947" lon="7.39666">
        <ele>2171</ele>
        <time>2013-08-28T06:32:57Z</time>
      </trkpt>
      <trkpt lat="44.09943" lon="7.39677">
        <ele>2162</ele>
        <time>2013-08-28T06:33:18Z</time>
      </trkpt>
      <trkpt lat="44.09934" lon="7.3968">
        <ele>2169</ele>
        <time>2013-08-28T06:33:27Z</time>
      </trkpt>
      <trkpt lat="44.0993" lon="7.39692">
        <ele>2169</ele>
        <time>2013-08-28T06:33:37Z</time>
      </trkpt>
      <trkpt lat="44.09921" lon="7.39695">
        <ele>2169</ele>
        <time>2013-08-28T06:33:43Z</time>
      </trkpt>
      <trkpt lat="44.09911" lon="7.39694">
        <ele>2169</ele>
        <time>2013-08-28T06:33:51Z</time>
      </trkpt>
      <trkpt lat="44.09902" lon="7.39695">
        <ele>2162</ele>
        <time>2013-08-28T06:34:00Z</time>
      </trkpt>
      <trkpt lat="44.09896" lon="7.39685">
        <ele>2175</ele>
        <time>2013-08-28T06:34:19Z</time>
      </trkpt>
      <trkpt lat="44.09892" lon="7.39675">
        <ele>2175</ele>
        <time>2013-08-28T06:34:28Z</time>
      </trkpt>
      <trkpt lat="44.09894" lon="7.39661">
        <ele>2161</ele>
        <time>2013-08-28T06:34:36Z</time>
      </trkpt>
      <trkpt lat="44.09891" lon="7.39649">
        <ele>2161</ele>
        <time>2013-08-28T06:34:44Z</time>
      </trkpt>
      <trkpt lat="44.0989" lon="7.39635">
        <ele>2161</ele>
        <time>2013-08-28T06:34:57Z</time>
      </trkpt>
      <trkpt lat="44.09892" lon="7.39622">
        <ele>2149</ele>
        <time>2013-08-28T06:35:03Z</time>
      </trkpt>
      <trkpt lat="44.0989" lon="7.39607">
        <ele>2149</ele>
        <time>2013-08-28T06:35:17Z</time>
      </trkpt>
      <trkpt lat="44.09885" lon="7.39596">
        <ele>2149</ele>
        <time>2013-08-28T06:35:30Z</time>
      </trkpt>
      <trkpt lat="44.09883" lon="7.39583">
        <ele>2149</ele>
        <time>2013-08-28T06:35:40Z</time>
      </trkpt>
      <trkpt lat="44.09885" lon="7.3957">
        <ele>2136</ele>
        <time>2013-08-28T06:35:58Z</time>
      </trkpt>
      <trkpt lat="44.09882" lon="7.39557">
        <ele>2136</ele>
        <time>2013-08-28T06:36:33Z</time>
      </trkpt>
      <trkpt lat="44.09874" lon="7.39552">
        <ele>2149</ele>
        <time>2013-08-28T06:36:50Z</time>
      </trkpt>
      <trkpt lat="44.09868" lon="7.39542">
        <ele>2163</ele>
        <time>2013-08-28T06:37:07Z</time>
      </trkpt>
      <trkpt lat="44.09866" lon="7.39529">
        <ele>2157</ele>
        <time>2013-08-28T06:37:19Z</time>
      </trkpt>
      <trkpt lat="44.09864" lon="7.39517">
        <ele>2166</ele>
        <time>2013-08-28T06:37:51Z</time>
      </trkpt>
      <trkpt lat="44.0986" lon="7.39506">
        <ele>2166</ele>
        <time>2013-08-28T06:38:04Z</time>
      </trkpt>
      <trkpt lat="44.09855" lon="7.39496">
        <ele>2145</ele>
        <time>2013-08-28T06:38:16Z</time>
      </trkpt>
      <trkpt lat="44.09847" lon="7.39488">
        <ele>2150</ele>
        <time>2013-08-28T06:38:36Z</time>
      </trkpt>
      <trkpt lat="44.09839" lon="7.39482">
        <ele>2150</ele>
        <time>2013-08-28T06:38:51Z</time>
      </trkpt>
      <trkpt lat="44.09829" lon="7.39481">
        <ele>2156</ele>
        <time>2013-08-28T06:39:05Z</time>
      </trkpt>
      <trkpt lat="44.09822" lon="7.39473">
        <ele>2156</ele>
        <time>2013-08-28T06:39:23Z</time>
      </trkpt>
      <trkpt lat="44.09813" lon="7.39473">
        <ele>2166</ele>
        <time>2013-08-28T06:39:38Z</time>
      </trkpt>
      <trkpt lat="44.09804" lon="7.39473">
        <ele>2166</ele>
        <time>2013-08-28T06:40:06Z</time>
      </trkpt>
      <trkpt lat="44.09795" lon="7.39469">
        <ele>2172</ele>
        <time>2013-08-28T06:40:32Z</time>
      </trkpt>
      <trkpt lat="44.09792" lon="7.39457">
        <ele>2172</ele>
        <time>2013-08-28T06:40:57Z</time>
      </trkpt>
      <trkpt lat="44.098" lon="7.39453">
        <ele>2180</ele>
        <time>2013-08-28T06:41:34Z</time>
      </trkpt>
      <trkpt lat="44.09807" lon="7.39445">
        <ele>2174</ele>
        <time>2013-08-28T06:41:50Z</time>
      </trkpt>
      <trkpt lat="44.09815" lon="7.39437">
        <ele>2165</ele>
        <time>2013-08-28T06:42:04Z</time>
      </trkpt>
      <trkpt lat="44.09815" lon="7.39425">
        <ele>2185</ele>
        <time>2013-08-28T06:42:50Z</time>
      </trkpt>
      <trkpt lat="44.09817" lon="7.39411">
        <ele>2174</ele>
        <time>2013-08-28T06:43:10Z</time>
      </trkpt>
      <trkpt lat="44.09825" lon="7.39405">
        <ele>2167</ele>
        <time>2013-08-28T06:43:36Z</time>
      </trkpt>
      <trkpt lat="44.09832" lon="7.39398">
        <ele>2161</ele>
        <time>2013-08-28T06:43:43Z</time>
      </trkpt>
      <trkpt lat="44.09827" lon="7.39408">
        <ele>2183</ele>
        <time>2013-08-28T06:44:07Z</time>
      </trkpt>
      <trkpt lat="44.09834" lon="7.394">
        <ele>2193</ele>
        <time>2013-08-28T06:44:39Z</time>
      </trkpt>
      <trkpt lat="44.09841" lon="7.39393">
        <ele>2193</ele>
        <time>2013-08-28T06:45:24Z</time>
      </trkpt>
      <trkpt lat="44.09846" lon="7.39383">
        <ele>2187</ele>
        <time>2013-08-28T06:45:29Z</time>
      </trkpt>
      <trkpt lat="44.09853" lon="7.39372">
        <ele>2174</ele>
        <time>2013-08-28T06:45:35Z</time>
      </trkpt>
      <trkpt lat="44.0985" lon="7.39384">
        <ele>2203</ele>
        <time>2013-08-28T06:45:59Z</time>
      </trkpt>
      <trkpt lat="44.09844" lon="7.39373">
        <ele>2208</ele>
        <time>2013-08-28T06:46:23Z</time>
      </trkpt>
      <trkpt lat="44.09846" lon="7.3936">
        <ele>2198</ele>
        <time>2013-08-28T06:46:55Z</time>
      </trkpt>
      <trkpt lat="44.09842" lon="7.39373">
        <ele>2221</ele>
        <time>2013-08-28T06:47:13Z</time>
      </trkpt>
      <trkpt lat="44.09849" lon="7.39365">
        <ele>2221</ele>
        <time>2013-08-28T06:47:20Z</time>
      </trkpt>
      <trkpt lat="44.09852" lon="7.39353">
        <ele>2221</ele>
        <time>2013-08-28T06:49:14Z</time>
      </trkpt>
      <trkpt lat="44.09843" lon="7.39353">
        <ele>2229</ele>
        <time>2013-08-28T06:49:34Z</time>
      </trkpt>
      <trkpt lat="44.09848" lon="7.39342">
        <ele>2223</ele>
        <time>2013-08-28T06:49:55Z</time>
      </trkpt>
      <trkpt lat="44.09852" lon="7.39329">
        <ele>2229</ele>
        <time>2013-08-28T06:51:12Z</time>
      </trkpt>
      <trkpt lat="44.09846" lon="7.3934">
        <ele>2237</ele>
        <time>2013-08-28T06:51:17Z</time>
      </trkpt>
      <trkpt lat="44.09841" lon="7.39349">
        <ele>2248</ele>
        <time>2013-08-28T06:51:25Z</time>
      </trkpt>
      <trkpt lat="44.09848" lon="7.3934">
        <ele>2242</ele>
        <time>2013-08-28T06:51:41Z</time>
      </trkpt>
      <trkpt lat="44.09852" lon="7.39328">
        <ele>2235</ele>
        <time>2013-08-28T06:51:47Z</time>
      </trkpt>
      <trkpt lat="44.09842" lon="7.39326">
        <ele>2242</ele>
        <time>2013-08-28T06:52:28Z</time>
      </trkpt>
      <trkpt lat="44.09845" lon="7.39314">
        <ele>2242</ele>
        <time>2013-08-28T06:53:01Z</time>
      </trkpt>
      <trkpt lat="44.09854" lon="7.39311">
        <ele>2254</ele>
        <time>2013-08-28T06:53:37Z</time>
      </trkpt>
      <trkpt lat="44.09862" lon="7.39305">
        <ele>2254</ele>
        <time>2013-08-28T06:53:51Z</time>
      </trkpt>
      <trkpt lat="44.09861" lon="7.3932">
        <ele>2274</ele>
        <time>2013-08-28T06:54:29Z</time>
      </trkpt>
      <trkpt lat="44.09854" lon="7.39331">
        <ele>2288</ele>
        <time>2013-08-28T06:54:34Z</time>
      </trkpt>
      <trkpt lat="44.09863" lon="7.39323">
        <ele>2288</ele>
        <time>2013-08-28T06:54:54Z</time>
      </trkpt>
      <trkpt lat="44.0987" lon="7.39313">
        <ele>2288</ele>
        <time>2013-08-28T06:54:58Z</time>
      </trkpt>
      <trkpt lat="44.09909" lon="7.39337">
        <ele>2288</ele>
        <time>2013-08-28T06:55:37Z</time>
      </trkpt>
      <trkpt lat="44.09915" lon="7.39287">
        <ele>2293</ele>
        <time>2013-08-28T06:55:38Z</time>
      </trkpt>
      <trkpt lat="44.09903" lon="7.39287">
        <ele>2293</ele>
        <time>2013-08-28T06:55:44Z</time>
      </trkpt>
      <trkpt lat="44.09898" lon="7.39302">
        <ele>2304</ele>
        <time>2013-08-28T06:55:46Z</time>
      </trkpt>
      <trkpt lat="44.09907" lon="7.39287">
        <ele>2298</ele>
        <time>2013-08-28T06:55:51Z</time>
      </trkpt>
      <trkpt lat="44.09916" lon="7.3927">
        <ele>2283</ele>
        <time>2013-08-28T06:55:54Z</time>
      </trkpt>
      <trkpt lat="44.0992" lon="7.39256">
        <ele>2270</ele>
        <time>2013-08-28T06:55:55Z</time>
      </trkpt>
      <trkpt lat="44.09927" lon="7.39239">
        <ele>2253</ele>
        <time>2013-08-28T06:55:57Z</time>
      </trkpt>
      <trkpt lat="44.09931" lon="7.39226">
        <ele>2246</ele>
        <time>2013-08-28T06:56:13Z</time>
      </trkpt>
      <trkpt lat="44.09922" lon="7.39232">
        <ele>2246</ele>
        <time>2013-08-28T06:56:28Z</time>
      </trkpt>
      <trkpt lat="44.09914" lon="7.39238">
        <ele>2246</ele>
        <time>2013-08-28T06:56:33Z</time>
      </trkpt>
      <trkpt lat="44.09903" lon="7.3925">
        <ele>2253</ele>
        <time>2013-08-28T06:56:35Z</time>
      </trkpt>
      <trkpt lat="44.09896" lon="7.39257">
        <ele>2253</ele>
        <time>2013-08-28T06:56:37Z</time>
      </trkpt>
      <trkpt lat="44.09888" lon="7.39263">
        <ele>2263</ele>
        <time>2013-08-28T06:56:44Z</time>
      </trkpt>
      <trkpt lat="44.09886" lon="7.39275">
        <ele>2286</ele>
        <time>2013-08-28T06:57:16Z</time>
      </trkpt>
      <trkpt lat="44.0989" lon="7.39263">
        <ele>2286</ele>
        <time>2013-08-28T06:57:39Z</time>
      </trkpt>
      <trkpt lat="44.09899" lon="7.3926">
        <ele>2286</ele>
        <time>2013-08-28T06:58:38Z</time>
      </trkpt>
      <trkpt lat="44.09908" lon="7.39255">
        <ele>2297</ele>
        <time>2013-08-28T06:59:04Z</time>
      </trkpt>
      <trkpt lat="44.0991" lon="7.39268">
        <ele>2314</ele>
        <time>2013-08-28T06:59:35Z</time>
      </trkpt>
      <trkpt lat="44.09917" lon="7.3926">
        <ele>2314</ele>
        <time>2013-08-28T06:59:49Z</time>
      </trkpt>
      <trkpt lat="44.09923" lon="7.3925">
        <ele>2303</ele>
        <time>2013-08-28T07:00:07Z</time>
      </trkpt>
      <trkpt lat="44.09928" lon="7.39239">
        <ele>2295</ele>
        <time>2013-08-28T07:00:14Z</time>
      </trkpt>
      <trkpt lat="44.09938" lon="7.39232">
        <ele>2284</ele>
        <time>2013-08-28T07:00:32Z</time>
      </trkpt>
      <trkpt lat="44.09945" lon="7.39222">
        <ele>2269</ele>
        <time>2013-08-28T07:00:40Z</time>
      </trkpt>
      <trkpt lat="44.0995" lon="7.39211">
        <ele>2257</ele>
        <time>2013-08-28T07:00:44Z</time>
      </trkpt>
      <trkpt lat="44.09944" lon="7.39221">
        <ele>2269</ele>
        <time>2013-08-28T07:00:55Z</time>
      </trkpt>
      <trkpt lat="44.09938" lon="7.39232">
        <ele>2284</ele>
        <time>2013-08-28T07:01:03Z</time>
      </trkpt>
      <trkpt lat="44.09936" lon="7.39245">
        <ele>2301</ele>
        <time>2013-08-28T07:04:24Z</time>
      </trkpt>
      <trkpt lat="44.09933" lon="7.39257">
        <ele>2314</ele>
        <time>2013-08-28T07:04:29Z</time>
      </trkpt>
      <trkpt lat="44.09942" lon="7.3924">
        <ele>2299</ele>
        <time>2013-08-28T07:04:47Z</time>
      </trkpt>
      <trkpt lat="44.09944" lon="7.39227">
        <ele>2291</ele>
        <time>2013-08-28T07:05:15Z</time>
      </trkpt>
      <trkpt lat="44.09954" lon="7.39225">
        <ele>2318</ele>
        <time>2013-08-28T07:06:16Z</time>
      </trkpt>
      <trkpt lat="44.0996" lon="7.39214">
        <ele>2318</ele>
        <time>2013-08-28T07:06:46Z</time>
      </trkpt>
      <trkpt lat="44.09965" lon="7.392">
        <ele>2303</ele>
        <time>2013-08-28T07:06:53Z</time>
      </trkpt>
      <trkpt lat="44.09956" lon="7.39205">
        <ele>2309</ele>
        <time>2013-08-28T07:07:02Z</time>
      </trkpt>
      <trkpt lat="44.09951" lon="7.39215">
        <ele>2322</ele>
        <time>2013-08-28T07:07:14Z</time>
      </trkpt>
      <trkpt lat="44.09958" lon="7.39206">
        <ele>2327</ele>
        <time>2013-08-28T07:07:35Z</time>
      </trkpt>
      <trkpt lat="44.09962" lon="7.39194">
        <ele>2320</ele>
        <time>2013-08-28T07:07:58Z</time>
      </trkpt>
      <trkpt lat="44.09953" lon="7.39189">
        <ele>2320</ele>
        <time>2013-08-28T07:08:27Z</time>
      </trkpt>
      <trkpt lat="44.0996" lon="7.39179">
        <ele>2320</ele>
        <time>2013-08-28T07:08:48Z</time>
      </trkpt>
      <trkpt lat="44.09967" lon="7.3917">
        <ele>2320</ele>
        <time>2013-08-28T07:08:52Z</time>
      </trkpt>
      <trkpt lat="44.09958" lon="7.39173">
        <ele>2329</ele>
        <time>2013-08-28T07:09:44Z</time>
      </trkpt>
      <trkpt lat="44.09961" lon="7.39161">
        <ele>2322</ele>
        <time>2013-08-28T07:09:58Z</time>
      </trkpt>
      <trkpt lat="44.09969" lon="7.39156">
        <ele>2322</ele>
        <time>2013-08-28T07:10:22Z</time>
      </trkpt>
      <trkpt lat="44.09976" lon="7.39165">
        <ele>2336</ele>
        <time>2013-08-28T07:10:53Z</time>
      </trkpt>
      <trkpt lat="44.09982" lon="7.39155">
        <ele>2336</ele>
        <time>2013-08-28T07:11:08Z</time>
      </trkpt>
      <trkpt lat="44.09975" lon="7.39163">
        <ele>2351</ele>
        <time>2013-08-28T07:11:46Z</time>
      </trkpt>
      <trkpt lat="44.09981" lon="7.39153">
        <ele>2351</ele>
        <time>2013-08-28T07:11:57Z</time>
      </trkpt>
      <trkpt lat="44.09985" lon="7.3914">
        <ele>2337</ele>
        <time>2013-08-28T07:12:04Z</time>
      </trkpt>
      <trkpt lat="44.0999" lon="7.3913">
        <ele>2337</ele>
        <time>2013-08-28T07:12:27Z</time>
      </trkpt>
      <trkpt lat="44.09983" lon="7.39138">
        <ele>2337</ele>
        <time>2013-08-28T07:12:30Z</time>
      </trkpt>
      <trkpt lat="44.0998" lon="7.3915">
        <ele>2354</ele>
        <time>2013-08-28T07:13:07Z</time>
      </trkpt>
      <trkpt lat="44.09984" lon="7.39137">
        <ele>2347</ele>
        <time>2013-08-28T07:13:11Z</time>
      </trkpt>
      <trkpt lat="44.09977" lon="7.39147">
        <ele>2347</ele>
        <time>2013-08-28T07:13:27Z</time>
      </trkpt>
      <trkpt lat="44.09974" lon="7.3916">
        <ele>2359</ele>
        <time>2013-08-28T07:13:47Z</time>
      </trkpt>
      <trkpt lat="44.0998" lon="7.39146">
        <ele>2359</ele>
        <time>2013-08-28T07:13:59Z</time>
      </trkpt>
      <trkpt lat="44.09982" lon="7.39129">
        <ele>2339</ele>
        <time>2013-08-28T07:14:08Z</time>
      </trkpt>
      <trkpt lat="44.09989" lon="7.39122">
        <ele>2339</ele>
        <time>2013-08-28T07:14:16Z</time>
      </trkpt>
      <trkpt lat="44.09999" lon="7.39117">
        <ele>2358</ele>
        <time>2013-08-28T07:14:44Z</time>
      </trkpt>
      <trkpt lat="44.10006" lon="7.39106">
        <ele>2358</ele>
        <time>2013-08-28T07:14:55Z</time>
      </trkpt>
      <trkpt lat="44.09997" lon="7.39113">
        <ele>2358</ele>
        <time>2013-08-28T07:15:14Z</time>
      </trkpt>
      <trkpt lat="44.09999" lon="7.39099">
        <ele>2346</ele>
        <time>2013-08-28T07:15:30Z</time>
      </trkpt>
      <trkpt lat="44.09993" lon="7.39109">
        <ele>2346</ele>
        <time>2013-08-28T07:15:40Z</time>
      </trkpt>
      <trkpt lat="44.09998" lon="7.39119">
        <ele>2372</ele>
        <time>2013-08-28T07:16:00Z</time>
      </trkpt>
      <trkpt lat="44.10001" lon="7.39105">
        <ele>2372</ele>
        <time>2013-08-28T07:16:04Z</time>
      </trkpt>
      <trkpt lat="44.10006" lon="7.39092">
        <ele>2364</ele>
        <time>2013-08-28T07:16:08Z</time>
      </trkpt>
      <trkpt lat="44.10003" lon="7.39104">
        <ele>2364</ele>
        <time>2013-08-28T07:16:15Z</time>
      </trkpt>
      <trkpt lat="44.10016" lon="7.3911">
        <ele>2355</ele>
        <time>2013-08-28T07:16:39Z</time>
      </trkpt>
      <trkpt lat="44.10026" lon="7.391">
        <ele>2345</ele>
        <time>2013-08-28T07:16:44Z</time>
      </trkpt>
      <trkpt lat="44.10034" lon="7.39084">
        <ele>2345</ele>
        <time>2013-08-28T07:16:46Z</time>
      </trkpt>
      <trkpt lat="44.10029" lon="7.39093">
        <ele>2339</ele>
        <time>2013-08-28T07:16:56Z</time>
      </trkpt>
      <trkpt lat="44.10023" lon="7.39083">
        <ele>2339</ele>
        <time>2013-08-28T07:17:02Z</time>
      </trkpt>
      <trkpt lat="44.10028" lon="7.39073">
        <ele>2333</ele>
        <time>2013-08-28T07:17:23Z</time>
      </trkpt>
      <trkpt lat="44.10026" lon="7.3906">
        <ele>2333</ele>
        <time>2013-08-28T07:17:44Z</time>
      </trkpt>
      <trkpt lat="44.10022" lon="7.39075">
        <ele>2333</ele>
        <time>2013-08-28T07:17:53Z</time>
      </trkpt>
      <trkpt lat="44.10024" lon="7.39058">
        <ele>2333</ele>
        <time>2013-08-28T07:17:59Z</time>
      </trkpt>
      <trkpt lat="44.10028" lon="7.39046">
        <ele>2333</ele>
        <time>2013-08-28T07:18:04Z</time>
      </trkpt>
      <trkpt lat="44.10038" lon="7.39047">
        <ele>2333</ele>
        <time>2013-08-28T07:18:14Z</time>
      </trkpt>
      <trkpt lat="44.10035" lon="7.39035">
        <ele>2341</ele>
        <time>2013-08-28T07:18:49Z</time>
      </trkpt>
      <trkpt lat="44.10029" lon="7.39022">
        <ele>2341</ele>
        <time>2013-08-28T07:18:55Z</time>
      </trkpt>
      <trkpt lat="44.10024" lon="7.39033">
        <ele>2341</ele>
        <time>2013-08-28T07:19:20Z</time>
      </trkpt>
      <trkpt lat="44.10016" lon="7.39015">
        <ele>2341</ele>
        <time>2013-08-28T07:19:23Z</time>
      </trkpt>
      <trkpt lat="44.10017" lon="7.39033">
        <ele>2341</ele>
        <time>2013-08-28T07:19:43Z</time>
      </trkpt>
      <trkpt lat="44.10031" lon="7.39032">
        <ele>2341</ele>
        <time>2013-08-28T07:20:04Z</time>
      </trkpt>
      <trkpt lat="44.10121" lon="7.38996">
        <ele>2341</ele>
        <time>2013-08-28T07:20:05Z</time>
      </trkpt>
      <trkpt lat="44.10151" lon="7.38983">
        <ele>2341</ele>
        <time>2013-08-28T07:20:06Z</time>
      </trkpt>
      <trkpt lat="44.10141" lon="7.38986">
        <ele>2347</ele>
        <time>2013-08-28T07:20:09Z</time>
      </trkpt>
      <trkpt lat="44.10134" lon="7.38978">
        <ele>2347</ele>
        <time>2013-08-28T07:20:17Z</time>
      </trkpt>
      <trkpt lat="44.10129" lon="7.3896">
        <ele>2347</ele>
        <time>2013-08-28T07:20:36Z</time>
      </trkpt>
      <trkpt lat="44.10104" lon="7.38967">
        <ele>2347</ele>
        <time>2013-08-28T07:20:46Z</time>
      </trkpt>
      <trkpt lat="44.1009" lon="7.38974">
        <ele>2347</ele>
        <time>2013-08-28T07:20:47Z</time>
      </trkpt>
      <trkpt lat="44.10081" lon="7.38979">
        <ele>2347</ele>
        <time>2013-08-28T07:20:48Z</time>
      </trkpt>
      <trkpt lat="44.10069" lon="7.38987">
        <ele>2347</ele>
        <time>2013-08-28T07:20:50Z</time>
      </trkpt>
      <trkpt lat="44.10051" lon="7.38994">
        <ele>2347</ele>
        <time>2013-08-28T07:20:52Z</time>
      </trkpt>
      <trkpt lat="44.1006" lon="7.38989">
        <ele>2347</ele>
        <time>2013-08-28T07:20:56Z</time>
      </trkpt>
      <trkpt lat="44.10065" lon="7.39003">
        <ele>2347</ele>
        <time>2013-08-28T07:21:01Z</time>
      </trkpt>
      <trkpt lat="44.10066" lon="7.39015">
        <ele>2347</ele>
        <time>2013-08-28T07:21:03Z</time>
      </trkpt>
      <trkpt lat="44.10058" lon="7.39027">
        <ele>2347</ele>
        <time>2013-08-28T07:21:14Z</time>
      </trkpt>
      <trkpt lat="44.10048" lon="7.39025">
        <ele>2347</ele>
        <time>2013-08-28T07:21:21Z</time>
      </trkpt>
      <trkpt lat="44.10039" lon="7.39029">
        <ele>2347</ele>
        <time>2013-08-28T07:21:29Z</time>
      </trkpt>
      <trkpt lat="44.10045" lon="7.39018">
        <ele>2347</ele>
        <time>2013-08-28T07:21:36Z</time>
      </trkpt>
      <trkpt lat="44.1007" lon="7.3902">
        <ele>2347</ele>
        <time>2013-08-28T07:22:07Z</time>
      </trkpt>
      <trkpt lat="44.1007" lon="7.39055">
        <ele>2347</ele>
        <time>2013-08-28T07:22:08Z</time>
      </trkpt>
      <trkpt lat="44.10074" lon="7.39067">
        <ele>2347</ele>
        <time>2013-08-28T07:22:09Z</time>
      </trkpt>
      <trkpt lat="44.10083" lon="7.39073">
        <ele>2347</ele>
        <time>2013-08-28T07:22:11Z</time>
      </trkpt>
      <trkpt lat="44.10083" lon="7.39059">
        <ele>2347</ele>
        <time>2013-08-28T07:22:19Z</time>
      </trkpt>
      <trkpt lat="44.1008" lon="7.39047">
        <ele>2347</ele>
        <time>2013-08-28T07:22:21Z</time>
      </trkpt>
      <trkpt lat="44.10071" lon="7.3904">
        <ele>2347</ele>
        <time>2013-08-28T07:22:24Z</time>
      </trkpt>
      <trkpt lat="44.10062" lon="7.39034">
        <ele>2347</ele>
        <time>2013-08-28T07:22:28Z</time>
      </trkpt>
      <trkpt lat="44.10056" lon="7.39049">
        <ele>2347</ele>
        <time>2013-08-28T07:22:31Z</time>
      </trkpt>
      <trkpt lat="44.10048" lon="7.3904">
        <ele>2347</ele>
        <time>2013-08-28T07:22:35Z</time>
      </trkpt>
      <trkpt lat="44.10041" lon="7.39049">
        <ele>2347</ele>
        <time>2013-08-28T07:22:48Z</time>
      </trkpt>
      <trkpt lat="44.1005" lon="7.39041">
        <ele>2347</ele>
        <time>2013-08-28T07:23:00Z</time>
      </trkpt>
      <trkpt lat="44.10053" lon="7.39028">
        <ele>2347</ele>
        <time>2013-08-28T07:23:23Z</time>
      </trkpt>
      <trkpt lat="44.10048" lon="7.39002">
        <ele>2347</ele>
        <time>2013-08-28T07:23:26Z</time>
      </trkpt>
      <trkpt lat="44.10046" lon="7.38989">
        <ele>2347</ele>
        <time>2013-08-28T07:23:27Z</time>
      </trkpt>
      <trkpt lat="44.10043" lon="7.38971">
        <ele>2347</ele>
        <time>2013-08-28T07:23:29Z</time>
      </trkpt>
      <trkpt lat="44.10042" lon="7.38985">
        <ele>2347</ele>
        <time>2013-08-28T07:23:41Z</time>
      </trkpt>
      <trkpt lat="44.10039" lon="7.38999">
        <ele>2347</ele>
        <time>2013-08-28T07:23:42Z</time>
      </trkpt>
      <trkpt lat="44.10039" lon="7.39013">
        <ele>2347</ele>
        <time>2013-08-28T07:23:45Z</time>
      </trkpt>
      <trkpt lat="44.10031" lon="7.39022">
        <ele>2347</ele>
        <time>2013-08-28T07:24:06Z</time>
      </trkpt>
      <trkpt lat="44.10026" lon="7.39012">
        <ele>2347</ele>
        <time>2013-08-28T07:24:13Z</time>
      </trkpt>
      <trkpt lat="44.10029" lon="7.38999">
        <ele>2347</ele>
        <time>2013-08-28T07:24:20Z</time>
      </trkpt>
      <trkpt lat="44.10028" lon="7.38985">
        <ele>2347</ele>
        <time>2013-08-28T07:24:28Z</time>
      </trkpt>
      <trkpt lat="44.10038" lon="7.38987">
        <ele>2347</ele>
        <time>2013-08-28T07:24:39Z</time>
      </trkpt>
      <trkpt lat="44.10042" lon="7.38976">
        <ele>2347</ele>
        <time>2013-08-28T07:24:41Z</time>
      </trkpt>
      <trkpt lat="44.10031" lon="7.38973">
        <ele>2347</ele>
        <time>2013-08-28T07:24:47Z</time>
      </trkpt>
      <trkpt lat="44.10033" lon="7.3896">
        <ele>2347</ele>
        <time>2013-08-28T07:25:05Z</time>
      </trkpt>
      <trkpt lat="44.10037" lon="7.38971">
        <ele>2347</ele>
        <time>2013-08-28T07:25:21Z</time>
      </trkpt>
      <trkpt lat="44.10036" lon="7.38958">
        <ele>2347</ele>
        <time>2013-08-28T07:25:35Z</time>
      </trkpt>
      <trkpt lat="44.1004" lon="7.3897">
        <ele>2347</ele>
        <time>2013-08-28T07:25:45Z</time>
      </trkpt>
      <trkpt lat="44.10038" lon="7.38958">
        <ele>2347</ele>
        <time>2013-08-28T07:26:05Z</time>
      </trkpt>
      <trkpt lat="44.10033" lon="7.38944">
        <ele>2347</ele>
        <time>2013-08-28T07:26:15Z</time>
      </trkpt>
      <trkpt lat="44.10024" lon="7.38946">
        <ele>2347</ele>
        <time>2013-08-28T07:26:37Z</time>
      </trkpt>
      <trkpt lat="44.10021" lon="7.38934">
        <ele>2347</ele>
        <time>2013-08-28T07:26:41Z</time>
      </trkpt>
      <trkpt lat="44.10022" lon="7.38921">
        <ele>2347</ele>
        <time>2013-08-28T07:27:15Z</time>
      </trkpt>
      <trkpt lat="44.10019" lon="7.38908">
        <ele>2347</ele>
        <time>2013-08-28T07:27:19Z</time>
      </trkpt>
      <trkpt lat="44.10022" lon="7.38922">
        <ele>2347</ele>
        <time>2013-08-28T07:27:21Z</time>
      </trkpt>
      <trkpt lat="44.10027" lon="7.38935">
        <ele>2347</ele>
        <time>2013-08-28T07:27:23Z</time>
      </trkpt>
      <trkpt lat="44.10024" lon="7.38924">
        <ele>2363</ele>
        <time>2013-08-28T07:27:33Z</time>
      </trkpt>
      <trkpt lat="44.1002" lon="7.38908">
        <ele>2363</ele>
        <time>2013-08-28T07:28:19Z</time>
      </trkpt>
      <trkpt lat="44.10019" lon="7.38896">
        <ele>2363</ele>
        <time>2013-08-28T07:28:24Z</time>
      </trkpt>
      <trkpt lat="44.10017" lon="7.38908">
        <ele>2363</ele>
        <time>2013-08-28T07:28:35Z</time>
      </trkpt>
      <trkpt lat="44.10016" lon="7.38894">
        <ele>2363</ele>
        <time>2013-08-28T07:28:43Z</time>
      </trkpt>
      <trkpt lat="44.1002" lon="7.38881">
        <ele>2363</ele>
        <time>2013-08-28T07:28:54Z</time>
      </trkpt>
      <trkpt lat="44.10022" lon="7.38868">
        <ele>2363</ele>
        <time>2013-08-28T07:28:58Z</time>
      </trkpt>
      <trkpt lat="44.10021" lon="7.38881">
        <ele>2357</ele>
        <time>2013-08-28T07:29:15Z</time>
      </trkpt>
      <trkpt lat="44.10023" lon="7.38894">
        <ele>2357</ele>
        <time>2013-08-28T07:29:18Z</time>
      </trkpt>
      <trkpt lat="44.10019" lon="7.38883">
        <ele>2357</ele>
        <time>2013-08-28T07:29:25Z</time>
      </trkpt>
      <trkpt lat="44.10016" lon="7.38869">
        <ele>2357</ele>
        <time>2013-08-28T07:29:29Z</time>
      </trkpt>
      <trkpt lat="44.10013" lon="7.38856">
        <ele>2357</ele>
        <time>2013-08-28T07:29:31Z</time>
      </trkpt>
      <trkpt lat="44.10013" lon="7.38843">
        <ele>2357</ele>
        <time>2013-08-28T07:29:49Z</time>
      </trkpt>
      <trkpt lat="44.10015" lon="7.38856">
        <ele>2357</ele>
        <time>2013-08-28T07:29:52Z</time>
      </trkpt>
      <trkpt lat="44.10044" lon="7.38877">
        <ele>2357</ele>
        <time>2013-08-28T07:30:12Z</time>
      </trkpt>
      <trkpt lat="44.10028" lon="7.38868">
        <ele>2357</ele>
        <time>2013-08-28T07:30:16Z</time>
      </trkpt>
      <trkpt lat="44.10019" lon="7.38858">
        <ele>2357</ele>
        <time>2013-08-28T07:30:18Z</time>
      </trkpt>
      <trkpt lat="44.10009" lon="7.38854">
        <ele>2349</ele>
        <time>2013-08-28T07:31:05Z</time>
      </trkpt>
      <trkpt lat="44.10014" lon="7.38845">
        <ele>2349</ele>
        <time>2013-08-28T07:31:19Z</time>
      </trkpt>
      <trkpt lat="44.10015" lon="7.38861">
        <ele>2349</ele>
        <time>2013-08-28T07:31:23Z</time>
      </trkpt>
      <trkpt lat="44.10014" lon="7.38848">
        <ele>2349</ele>
        <time>2013-08-28T07:31:40Z</time>
      </trkpt>
      <trkpt lat="44.10007" lon="7.3884">
        <ele>2374</ele>
        <time>2013-08-28T07:31:53Z</time>
      </trkpt>
      <trkpt lat="44.09998" lon="7.38848">
        <ele>2402</ele>
        <time>2013-08-28T07:32:19Z</time>
      </trkpt>
      <trkpt lat="44.10006" lon="7.38836">
        <ele>2416</ele>
        <time>2013-08-28T07:33:12Z</time>
      </trkpt>
      <trkpt lat="44.1001" lon="7.38823">
        <ele>2404</ele>
        <time>2013-08-28T07:33:17Z</time>
      </trkpt>
      <trkpt lat="44.10016" lon="7.38812">
        <ele>2397</ele>
        <time>2013-08-28T07:33:32Z</time>
      </trkpt>
      <trkpt lat="44.10006" lon="7.3881">
        <ele>2389</ele>
        <time>2013-08-28T07:33:50Z</time>
      </trkpt>
      <trkpt lat="44.10002" lon="7.38824">
        <ele>2407</ele>
        <time>2013-08-28T07:34:05Z</time>
      </trkpt>
      <trkpt lat="44.09999" lon="7.38836">
        <ele>2420</ele>
        <time>2013-08-28T07:34:12Z</time>
      </trkpt>
      <trkpt lat="44.09995" lon="7.38846">
        <ele>2433</ele>
        <time>2013-08-28T07:34:15Z</time>
      </trkpt>
      <trkpt lat="44.09989" lon="7.38856">
        <ele>2446</ele>
        <time>2013-08-28T07:34:32Z</time>
      </trkpt>
      <trkpt lat="44.09992" lon="7.38842">
        <ele>2433</ele>
        <time>2013-08-28T07:34:45Z</time>
      </trkpt>
      <trkpt lat="44.09998" lon="7.38828">
        <ele>2419</ele>
        <time>2013-08-28T07:34:50Z</time>
      </trkpt>
      <trkpt lat="44.10004" lon="7.38818">
        <ele>2409</ele>
        <time>2013-08-28T07:34:53Z</time>
      </trkpt>
      <trkpt lat="44.10013" lon="7.38809">
        <ele>2401</ele>
        <time>2013-08-28T07:34:56Z</time>
      </trkpt>
      <trkpt lat="44.10022" lon="7.38803">
        <ele>2395</ele>
        <time>2013-08-28T07:34:58Z</time>
      </trkpt>
      <trkpt lat="44.10013" lon="7.38811">
        <ele>2415</ele>
        <time>2013-08-28T07:35:19Z</time>
      </trkpt>
      <trkpt lat="44.10019" lon="7.38801">
        <ele>2415</ele>
        <time>2013-08-28T07:35:35Z</time>
      </trkpt>
      <trkpt lat="44.10028" lon="7.38789">
        <ele>2400</ele>
        <time>2013-08-28T07:35:43Z</time>
      </trkpt>
      <trkpt lat="44.10023" lon="7.38799">
        <ele>2417</ele>
        <time>2013-08-28T07:36:15Z</time>
      </trkpt>
      <trkpt lat="44.1003" lon="7.3881">
        <ele>2423</ele>
        <time>2013-08-28T07:36:31Z</time>
      </trkpt>
      <trkpt lat="44.1002" lon="7.38808">
        <ele>2423</ele>
        <time>2013-08-28T07:36:35Z</time>
      </trkpt>
      <trkpt lat="44.1002" lon="7.38795">
        <ele>2417</ele>
        <time>2013-08-28T07:36:49Z</time>
      </trkpt>
      <trkpt lat="44.10011" lon="7.38801">
        <ele>2427</ele>
        <time>2013-08-28T07:37:00Z</time>
      </trkpt>
      <trkpt lat="44.10014" lon="7.38788">
        <ele>2419</ele>
        <time>2013-08-28T07:37:09Z</time>
      </trkpt>
      <trkpt lat="44.1002" lon="7.38777">
        <ele>2408</ele>
        <time>2013-08-28T07:37:14Z</time>
      </trkpt>
      <trkpt lat="44.10013" lon="7.38784">
        <ele>2426</ele>
        <time>2013-08-28T07:37:50Z</time>
      </trkpt>
      <trkpt lat="44.10006" lon="7.38794">
        <ele>2438</ele>
        <time>2013-08-28T07:37:56Z</time>
      </trkpt>
      <trkpt lat="44.10015" lon="7.38795">
        <ele>2444</ele>
        <time>2013-08-28T07:38:25Z</time>
      </trkpt>
      <trkpt lat="44.10024" lon="7.38786">
        <ele>2435</ele>
        <time>2013-08-28T07:38:30Z</time>
      </trkpt>
      <trkpt lat="44.10026" lon="7.38771">
        <ele>2426</ele>
        <time>2013-08-28T07:38:47Z</time>
      </trkpt>
      <trkpt lat="44.10019" lon="7.3878">
        <ele>2434</ele>
        <time>2013-08-28T07:38:54Z</time>
      </trkpt>
      <trkpt lat="44.10026" lon="7.3877">
        <ele>2434</ele>
        <time>2013-08-28T07:39:22Z</time>
      </trkpt>
      <trkpt lat="44.10029" lon="7.38758">
        <ele>2434</ele>
        <time>2013-08-28T07:40:07Z</time>
      </trkpt>
      <trkpt lat="44.10033" lon="7.38745">
        <ele>2434</ele>
        <time>2013-08-28T07:40:49Z</time>
      </trkpt>
      <trkpt lat="44.10024" lon="7.38744">
        <ele>2443</ele>
        <time>2013-08-28T07:41:06Z</time>
      </trkpt>
      <trkpt lat="44.10024" lon="7.38731">
        <ele>2434</ele>
        <time>2013-08-28T07:41:22Z</time>
      </trkpt>
      <trkpt lat="44.10024" lon="7.38718">
        <ele>2426</ele>
        <time>2013-08-28T07:41:42Z</time>
      </trkpt>
      <trkpt lat="44.10025" lon="7.38731">
        <ele>2448</ele>
        <time>2013-08-28T07:42:08Z</time>
      </trkpt>
      <trkpt lat="44.10034" lon="7.3873">
        <ele>2456</ele>
        <time>2013-08-28T07:42:55Z</time>
      </trkpt>
      <trkpt lat="44.10042" lon="7.38723">
        <ele>2464</ele>
        <time>2013-08-28T07:43:56Z</time>
      </trkpt>
      <trkpt lat="44.10048" lon="7.38713">
        <ele>2456</ele>
        <time>2013-08-28T07:44:13Z</time>
      </trkpt>
      <trkpt lat="44.1005" lon="7.387">
        <ele>2450</ele>
        <time>2013-08-28T07:44:25Z</time>
      </trkpt>
      <trkpt lat="44.10053" lon="7.38712">
        <ele>2466</ele>
        <time>2013-08-28T07:44:48Z</time>
      </trkpt>
      <trkpt lat="44.10055" lon="7.38724">
        <ele>2471</ele>
        <time>2013-08-28T07:45:37Z</time>
      </trkpt>
      <trkpt lat="44.10061" lon="7.38734">
        <ele>2479</ele>
        <time>2013-08-28T07:46:12Z</time>
      </trkpt>
      <trkpt lat="44.10059" lon="7.38722">
        <ele>2479</ele>
        <time>2013-08-28T07:47:14Z</time>
      </trkpt>
      <trkpt lat="44.10059" lon="7.38708">
        <ele>2469</ele>
        <time>2013-08-28T07:47:23Z</time>
      </trkpt>
      <trkpt lat="44.10063" lon="7.38695">
        <ele>2460</ele>
        <time>2013-08-28T07:47:34Z</time>
      </trkpt>
      <trkpt lat="44.10064" lon="7.38683">
        <ele>2468</ele>
        <time>2013-08-28T07:48:29Z</time>
      </trkpt>
      <trkpt lat="44.10071" lon="7.3869">
        <ele>2487</ele>
        <time>2013-08-28T07:49:15Z</time>
      </trkpt>
      <trkpt lat="44.10074" lon="7.38678">
        <ele>2480</ele>
        <time>2013-08-28T07:49:39Z</time>
      </trkpt>
      <trkpt lat="44.10077" lon="7.38663">
        <ele>2467</ele>
        <time>2013-08-28T07:49:51Z</time>
      </trkpt>
      <trkpt lat="44.10077" lon="7.38676">
        <ele>2482</ele>
        <time>2013-08-28T07:50:14Z</time>
      </trkpt>
      <trkpt lat="44.10082" lon="7.38666">
        <ele>2471</ele>
        <time>2013-08-28T07:51:12Z</time>
      </trkpt>
      <trkpt lat="44.1008" lon="7.38653">
        <ele>2471</ele>
        <time>2013-08-28T07:51:26Z</time>
      </trkpt>
      <trkpt lat="44.1008" lon="7.38666">
        <ele>2481</ele>
        <time>2013-08-28T07:51:38Z</time>
      </trkpt>
      <trkpt lat="44.10088" lon="7.38661">
        <ele>2487</ele>
        <time>2013-08-28T07:52:37Z</time>
      </trkpt>
      <trkpt lat="44.10088" lon="7.38649">
        <ele>2474</ele>
        <time>2013-08-28T07:52:46Z</time>
      </trkpt>
      <trkpt lat="44.10087" lon="7.38634">
        <ele>2460</ele>
        <time>2013-08-28T07:52:51Z</time>
      </trkpt>
      <trkpt lat="44.10088" lon="7.38649">
        <ele>2478</ele>
        <time>2013-08-28T07:53:05Z</time>
      </trkpt>
      <trkpt lat="44.10087" lon="7.38663">
        <ele>2491</ele>
        <time>2013-08-28T07:53:08Z</time>
      </trkpt>
      <trkpt lat="44.10086" lon="7.38677">
        <ele>2502</ele>
        <time>2013-08-28T07:53:12Z</time>
      </trkpt>
      <trkpt lat="44.10087" lon="7.38664">
        <ele>2496</ele>
        <time>2013-08-28T07:53:58Z</time>
      </trkpt>
      <trkpt lat="44.1009" lon="7.38652">
        <ele>2496</ele>
        <time>2013-08-28T07:54:58Z</time>
      </trkpt>
      <trkpt lat="44.1009" lon="7.38667">
        <ele>2518</ele>
        <time>2013-08-28T07:55:42Z</time>
      </trkpt>
      <trkpt lat="44.10088" lon="7.38653">
        <ele>2518</ele>
        <time>2013-08-28T07:55:56Z</time>
      </trkpt>
      <trkpt lat="44.10093" lon="7.38641">
        <ele>2505</ele>
        <time>2013-08-28T07:56:23Z</time>
      </trkpt>
      <trkpt lat="44.10097" lon="7.38652">
        <ele>2512</ele>
        <time>2013-08-28T07:56:35Z</time>
      </trkpt>
      <trkpt lat="44.10098" lon="7.38665">
        <ele>2533</ele>
        <time>2013-08-28T07:56:49Z</time>
      </trkpt>
      <trkpt lat="44.10105" lon="7.38656">
        <ele>2521</ele>
        <time>2013-08-28T07:57:11Z</time>
      </trkpt>
      <trkpt lat="44.10113" lon="7.38649">
        <ele>2514</ele>
        <time>2013-08-28T07:57:31Z</time>
      </trkpt>
      <trkpt lat="44.10113" lon="7.38636">
        <ele>2514</ele>
        <time>2013-08-28T07:58:03Z</time>
      </trkpt>
      <trkpt lat="44.1011" lon="7.38624">
        <ele>2522</ele>
        <time>2013-08-28T07:59:23Z</time>
      </trkpt>
      <trkpt lat="44.1012" lon="7.38625">
        <ele>2522</ele>
        <time>2013-08-28T07:59:28Z</time>
      </trkpt>
      <trkpt lat="44.10113" lon="7.38635">
        <ele>2542</ele>
        <time>2013-08-28T08:00:43Z</time>
      </trkpt>
      <trkpt lat="44.10116" lon="7.38624">
        <ele>2534</ele>
        <time>2013-08-28T08:01:04Z</time>
      </trkpt>
      <trkpt lat="44.10116" lon="7.38609">
        <ele>2544</ele>
        <time>2013-08-28T08:02:41Z</time>
      </trkpt>
      <trkpt lat="44.10119" lon="7.38597">
        <ele>2559</ele>
        <time>2013-08-28T08:04:29Z</time>
      </trkpt>
      <trkpt lat="44.10116" lon="7.38585">
        <ele>2554</ele>
        <time>2013-08-28T08:04:59Z</time>
      </trkpt>
      <trkpt lat="44.10119" lon="7.38573">
        <ele>2541</ele>
        <time>2013-08-28T08:05:15Z</time>
      </trkpt>
      <trkpt lat="44.10111" lon="7.38562">
        <ele>2541</ele>
        <time>2013-08-28T08:05:22Z</time>
      </trkpt>
      <trkpt lat="44.10097" lon="7.38554">
        <ele>2541</ele>
        <time>2013-08-28T08:05:37Z</time>
      </trkpt>
      <trkpt lat="44.1011" lon="7.38572">
        <ele>2541</ele>
        <time>2013-08-28T08:05:38Z</time>
      </trkpt>
      <trkpt lat="44.10117" lon="7.38582">
        <ele>2548</ele>
        <time>2013-08-28T08:05:39Z</time>
      </trkpt>
      <trkpt lat="44.10117" lon="7.38596">
        <ele>2556</ele>
        <time>2013-08-28T08:05:43Z</time>
      </trkpt>
      <trkpt lat="44.10109" lon="7.38581">
        <ele>2556</ele>
        <time>2013-08-28T08:05:55Z</time>
      </trkpt>
      <trkpt lat="44.10116" lon="7.38573">
        <ele>2539</ele>
        <time>2013-08-28T08:06:59Z</time>
      </trkpt>
      <trkpt lat="44.10106" lon="7.38572">
        <ele>2551</ele>
        <time>2013-08-28T08:07:33Z</time>
      </trkpt>
      <trkpt lat="44.10095" lon="7.38564">
        <ele>2551</ele>
        <time>2013-08-28T08:07:37Z</time>
      </trkpt>
      <trkpt lat="44.10105" lon="7.3857">
        <ele>2551</ele>
        <time>2013-08-28T08:07:51Z</time>
      </trkpt>
      <trkpt lat="44.10112" lon="7.38577">
        <ele>2551</ele>
        <time>2013-08-28T08:07:58Z</time>
      </trkpt>
      <trkpt lat="44.1012" lon="7.38584">
        <ele>2551</ele>
        <time>2013-08-28T08:08:48Z</time>
      </trkpt>
      <trkpt lat="44.10113" lon="7.38575">
        <ele>2558</ele>
        <time>2013-08-28T08:10:02Z</time>
      </trkpt>
      <trkpt lat="44.10123" lon="7.38581">
        <ele>2558</ele>
        <time>2013-08-28T08:10:55Z</time>
      </trkpt>
      <trkpt lat="44.1013" lon="7.38589">
        <ele>2550</ele>
        <time>2013-08-28T08:11:05Z</time>
      </trkpt>
      <trkpt lat="44.10121" lon="7.38584">
        <ele>2550</ele>
        <time>2013-08-28T08:11:19Z</time>
      </trkpt>
      <trkpt lat="44.1013" lon="7.38581">
        <ele>2536</ele>
        <time>2013-08-28T08:11:50Z</time>
      </trkpt>
      <trkpt lat="44.10127" lon="7.38569">
        <ele>2536</ele>
        <time>2013-08-28T08:12:02Z</time>
      </trkpt>
      <trkpt lat="44.10131" lon="7.38556">
        <ele>2536</ele>
        <time>2013-08-28T08:12:30Z</time>
      </trkpt>
      <trkpt lat="44.10138" lon="7.3855">
        <ele>2536</ele>
        <time>2013-08-28T08:13:18Z</time>
      </trkpt>
      <trkpt lat="44.10145" lon="7.3854">
        <ele>2527</ele>
        <time>2013-08-28T08:13:46Z</time>
      </trkpt>
      <trkpt lat="44.10145" lon="7.38528">
        <ele>2527</ele>
        <time>2013-08-28T08:14:30Z</time>
      </trkpt>
      <trkpt lat="44.10149" lon="7.38516">
        <ele>2518</ele>
        <time>2013-08-28T08:15:01Z</time>
      </trkpt>
      <trkpt lat="44.10138" lon="7.38512">
        <ele>2507</ele>
        <time>2013-08-28T08:15:14Z</time>
      </trkpt>
      <trkpt lat="44.10149" lon="7.38515">
        <ele>2501</ele>
        <time>2013-08-28T08:15:24Z</time>
      </trkpt>
      <trkpt lat="44.10149" lon="7.38502">
        <ele>2518</ele>
        <time>2013-08-28T08:15:30Z</time>
      </trkpt>
      <trkpt lat="44.10155" lon="7.38512">
        <ele>2534</ele>
        <time>2013-08-28T08:15:41Z</time>
      </trkpt>
      <trkpt lat="44.10159" lon="7.38525">
        <ele>2534</ele>
        <time>2013-08-28T08:15:55Z</time>
      </trkpt>
      <trkpt lat="44.1015" lon="7.38522">
        <ele>2534</ele>
        <time>2013-08-28T08:16:01Z</time>
      </trkpt>
      <trkpt lat="44.10142" lon="7.38517">
        <ele>2534</ele>
        <time>2013-08-28T08:16:11Z</time>
      </trkpt>
      <trkpt lat="44.10151" lon="7.38513">
        <ele>2515</ele>
        <time>2013-08-28T08:16:52Z</time>
      </trkpt>
      <trkpt lat="44.1016" lon="7.38512">
        <ele>2527</ele>
        <time>2013-08-28T08:16:56Z</time>
      </trkpt>
      <trkpt lat="44.10169" lon="7.38509">
        <ele>2527</ele>
        <time>2013-08-28T08:17:02Z</time>
      </trkpt>
      <trkpt lat="44.1016" lon="7.38511">
        <ele>2520</ele>
        <time>2013-08-28T08:17:10Z</time>
      </trkpt>
      <trkpt lat="44.10155" lon="7.38524">
        <ele>2494</ele>
        <time>2013-08-28T08:17:43Z</time>
      </trkpt>
      <trkpt lat="44.10145" lon="7.38525">
        <ele>2504</ele>
        <time>2013-08-28T08:17:58Z</time>
      </trkpt>
      <trkpt lat="44.10141" lon="7.38514">
        <ele>2511</ele>
        <time>2013-08-28T08:18:02Z</time>
      </trkpt>
      <trkpt lat="44.10148" lon="7.38507">
        <ele>2498</ele>
        <time>2013-08-28T08:19:05Z</time>
      </trkpt>
      <trkpt lat="44.10156" lon="7.38513">
        <ele>2493</ele>
        <time>2013-08-28T08:19:11Z</time>
      </trkpt>
      <trkpt lat="44.10162" lon="7.38503">
        <ele>2493</ele>
        <time>2013-08-28T08:19:54Z</time>
      </trkpt>
      <trkpt lat="44.10169" lon="7.38495">
        <ele>2493</ele>
        <time>2013-08-28T08:20:13Z</time>
      </trkpt>
      <trkpt lat="44.10162" lon="7.38484">
        <ele>2512</ele>
        <time>2013-08-28T08:20:30Z</time>
      </trkpt>
      <trkpt lat="44.10171" lon="7.3849">
        <ele>2538</ele>
        <time>2013-08-28T08:20:49Z</time>
      </trkpt>
      <trkpt lat="44.10176" lon="7.385">
        <ele>2517</ele>
        <time>2013-08-28T08:21:00Z</time>
      </trkpt>
      <trkpt lat="44.10168" lon="7.38495">
        <ele>2510</ele>
        <time>2013-08-28T08:21:10Z</time>
      </trkpt>
      <trkpt lat="44.10173" lon="7.38508">
        <ele>2454</ele>
        <time>2013-08-28T08:22:03Z</time>
      </trkpt>
      <trkpt lat="44.10169" lon="7.38494">
        <ele>2492</ele>
        <time>2013-08-28T08:22:17Z</time>
      </trkpt>
      <trkpt lat="44.10178" lon="7.3849">
        <ele>2510</ele>
        <time>2013-08-28T08:23:38Z</time>
      </trkpt>
      <trkpt lat="44.10166" lon="7.38486">
        <ele>2486</ele>
        <time>2013-08-28T08:23:53Z</time>
      </trkpt>
      <trkpt lat="44.10175" lon="7.38482">
        <ele>2481</ele>
        <time>2013-08-28T08:24:08Z</time>
      </trkpt>
      <trkpt lat="44.1018" lon="7.38472">
        <ele>2492</ele>
        <time>2013-08-28T08:24:21Z</time>
      </trkpt>
      <trkpt lat="44.10192" lon="7.38481">
        <ele>2485</ele>
        <time>2013-08-28T08:24:32Z</time>
      </trkpt>
      <trkpt lat="44.10201" lon="7.38486">
        <ele>2477</ele>
        <time>2013-08-28T08:24:40Z</time>
      </trkpt>
      <trkpt lat="44.10192" lon="7.38478">
        <ele>2484</ele>
        <time>2013-08-28T08:24:46Z</time>
      </trkpt>
      <trkpt lat="44.10186" lon="7.38469">
        <ele>2484</ele>
        <time>2013-08-28T08:25:21Z</time>
      </trkpt>
      <trkpt lat="44.10194" lon="7.38474">
        <ele>2490</ele>
        <time>2013-08-28T08:25:39Z</time>
      </trkpt>
      <trkpt lat="44.10202" lon="7.38481">
        <ele>2490</ele>
        <time>2013-08-28T08:25:42Z</time>
      </trkpt>
      <trkpt lat="44.10195" lon="7.38472">
        <ele>2498</ele>
        <time>2013-08-28T08:25:48Z</time>
      </trkpt>
      <trkpt lat="44.10186" lon="7.38467">
        <ele>2498</ele>
        <time>2013-08-28T08:25:52Z</time>
      </trkpt>
      <trkpt lat="44.10177" lon="7.38461">
        <ele>2498</ele>
        <time>2013-08-28T08:25:58Z</time>
      </trkpt>
      <trkpt lat="44.10182" lon="7.38471">
        <ele>2489</ele>
        <time>2013-08-28T08:26:04Z</time>
      </trkpt>
      <trkpt lat="44.10191" lon="7.38468">
        <ele>2489</ele>
        <time>2013-08-28T08:26:09Z</time>
      </trkpt>
      <trkpt lat="44.10186" lon="7.38455">
        <ele>2489</ele>
        <time>2013-08-28T08:26:12Z</time>
      </trkpt>
      <trkpt lat="44.10191" lon="7.38466">
        <ele>2478</ele>
        <time>2013-08-28T08:26:19Z</time>
      </trkpt>
      <trkpt lat="44.10199" lon="7.38472">
        <ele>2490</ele>
        <time>2013-08-28T08:26:39Z</time>
      </trkpt>
      <trkpt lat="44.10189" lon="7.38465">
        <ele>2502</ele>
        <time>2013-08-28T08:27:05Z</time>
      </trkpt>
      <trkpt lat="44.10183" lon="7.38456">
        <ele>2526</ele>
        <time>2013-08-28T08:27:11Z</time>
      </trkpt>
      <trkpt lat="44.10192" lon="7.38463">
        <ele>2512</ele>
        <time>2013-08-28T08:27:31Z</time>
      </trkpt>
      <trkpt lat="44.102" lon="7.38466">
        <ele>2506</ele>
        <time>2013-08-28T08:27:37Z</time>
      </trkpt>
      <trkpt lat="44.10191" lon="7.38465">
        <ele>2506</ele>
        <time>2013-08-28T08:27:57Z</time>
      </trkpt>
      <trkpt lat="44.10183" lon="7.38459">
        <ele>2506</ele>
        <time>2013-08-28T08:28:01Z</time>
      </trkpt>
      <trkpt lat="44.10189" lon="7.38468">
        <ele>2506</ele>
        <time>2013-08-28T08:28:18Z</time>
      </trkpt>
      <trkpt lat="44.1018" lon="7.38464">
        <ele>2495</ele>
        <time>2013-08-28T08:28:33Z</time>
      </trkpt>
      <trkpt lat="44.10171" lon="7.38456">
        <ele>2501</ele>
        <time>2013-08-28T08:28:38Z</time>
      </trkpt>
      <trkpt lat="44.10162" lon="7.38458">
        <ele>2470</ele>
        <time>2013-08-28T08:29:06Z</time>
      </trkpt>
      <trkpt lat="44.10163" lon="7.38446">
        <ele>2470</ele>
        <time>2013-08-28T08:29:31Z</time>
      </trkpt>
      <trkpt lat="44.10173" lon="7.38448">
        <ele>2470</ele>
        <time>2013-08-28T08:29:40Z</time>
      </trkpt>
      <trkpt lat="44.10182" lon="7.38444">
        <ele>2462</ele>
        <time>2013-08-28T08:29:51Z</time>
      </trkpt>
      <trkpt lat="44.10174" lon="7.38435">
        <ele>2462</ele>
        <time>2013-08-28T08:30:10Z</time>
      </trkpt>
      <trkpt lat="44.10166" lon="7.38428">
        <ele>2462</ele>
        <time>2013-08-28T08:30:28Z</time>
      </trkpt>
      <trkpt lat="44.10159" lon="7.38421">
        <ele>2462</ele>
        <time>2013-08-28T08:30:56Z</time>
      </trkpt>
      <trkpt lat="44.10168" lon="7.38416">
        <ele>2470</ele>
        <time>2013-08-28T08:31:22Z</time>
      </trkpt>
      <trkpt lat="44.10164" lon="7.38405">
        <ele>2448</ele>
        <time>2013-08-28T08:31:55Z</time>
      </trkpt>
      <trkpt lat="44.10157" lon="7.38395">
        <ele>2454</ele>
        <time>2013-08-28T08:32:03Z</time>
      </trkpt>
      <trkpt lat="44.10165" lon="7.3839">
        <ele>2461</ele>
        <time>2013-08-28T08:32:10Z</time>
      </trkpt>
      <trkpt lat="44.10163" lon="7.38378">
        <ele>2461</ele>
        <time>2013-08-28T08:32:15Z</time>
      </trkpt>
      <trkpt lat="44.10171" lon="7.38372">
        <ele>2474</ele>
        <time>2013-08-28T08:32:24Z</time>
      </trkpt>
      <trkpt lat="44.10182" lon="7.3837">
        <ele>2485</ele>
        <time>2013-08-28T08:32:28Z</time>
      </trkpt>
      <trkpt lat="44.10191" lon="7.38372">
        <ele>2492</ele>
        <time>2013-08-28T08:32:30Z</time>
      </trkpt>
      <trkpt lat="44.1018" lon="7.38365">
        <ele>2505</ele>
        <time>2013-08-28T08:32:42Z</time>
      </trkpt>
      <trkpt lat="44.10173" lon="7.38373">
        <ele>2499</ele>
        <time>2013-08-28T08:32:48Z</time>
      </trkpt>
      <trkpt lat="44.10162" lon="7.38373">
        <ele>2483</ele>
        <time>2013-08-28T08:32:54Z</time>
      </trkpt>
      <trkpt lat="44.10153" lon="7.38369">
        <ele>2473</ele>
        <time>2013-08-28T08:33:00Z</time>
      </trkpt>
      <trkpt lat="44.10143" lon="7.38373">
        <ele>2473</ele>
        <time>2013-08-28T08:33:09Z</time>
      </trkpt>
      <trkpt lat="44.10148" lon="7.38362">
        <ele>2465</ele>
        <time>2013-08-28T08:33:20Z</time>
      </trkpt>
      <trkpt lat="44.10158" lon="7.38364">
        <ele>2434</ele>
        <time>2013-08-28T08:33:52Z</time>
      </trkpt>
      <trkpt lat="44.10148" lon="7.38353">
        <ele>2434</ele>
        <time>2013-08-28T08:34:06Z</time>
      </trkpt>
      <trkpt lat="44.10156" lon="7.38358">
        <ele>2414</ele>
        <time>2013-08-28T08:34:11Z</time>
      </trkpt>
      <trkpt lat="44.10153" lon="7.38345">
        <ele>2433</ele>
        <time>2013-08-28T08:34:17Z</time>
      </trkpt>
      <trkpt lat="44.10162" lon="7.38346">
        <ele>2453</ele>
        <time>2013-08-28T08:34:39Z</time>
      </trkpt>
      <trkpt lat="44.10159" lon="7.38333">
        <ele>2453</ele>
        <time>2013-08-28T08:35:09Z</time>
      </trkpt>
      <trkpt lat="44.10163" lon="7.38321">
        <ele>2453</ele>
        <time>2013-08-28T08:35:17Z</time>
      </trkpt>
      <trkpt lat="44.10167" lon="7.38308">
        <ele>2453</ele>
        <time>2013-08-28T08:35:31Z</time>
      </trkpt>
      <trkpt lat="44.1016" lon="7.38298">
        <ele>2453</ele>
        <time>2013-08-28T08:35:53Z</time>
      </trkpt>
      <trkpt lat="44.10162" lon="7.38286">
        <ele>2431</ele>
        <time>2013-08-28T08:36:46Z</time>
      </trkpt>
      <trkpt lat="44.10169" lon="7.38278">
        <ele>2431</ele>
        <time>2013-08-28T08:37:02Z</time>
      </trkpt>
      <trkpt lat="44.10174" lon="7.38267">
        <ele>2431</ele>
        <time>2013-08-28T08:37:22Z</time>
      </trkpt>
      <trkpt lat="44.10175" lon="7.38254">
        <ele>2431</ele>
        <time>2013-08-28T08:37:57Z</time>
      </trkpt>
      <trkpt lat="44.10166" lon="7.38245">
        <ele>2431</ele>
        <time>2013-08-28T08:38:27Z</time>
      </trkpt>
      <trkpt lat="44.10171" lon="7.38233">
        <ele>2431</ele>
        <time>2013-08-28T08:39:22Z</time>
      </trkpt>
      <trkpt lat="44.10162" lon="7.38227">
        <ele>2436</ele>
        <time>2013-08-28T08:39:37Z</time>
      </trkpt>
      <trkpt lat="44.1017" lon="7.38224">
        <ele>2429</ele>
        <time>2013-08-28T08:39:44Z</time>
      </trkpt>
      <trkpt lat="44.10178" lon="7.38217">
        <ele>2429</ele>
        <time>2013-08-28T08:40:07Z</time>
      </trkpt>
      <trkpt lat="44.10184" lon="7.38208">
        <ele>2429</ele>
        <time>2013-08-28T08:40:33Z</time>
      </trkpt>
      <trkpt lat="44.10189" lon="7.38198">
        <ele>2422</ele>
        <time>2013-08-28T08:40:54Z</time>
      </trkpt>
      <trkpt lat="44.10198" lon="7.38196">
        <ele>2416</ele>
        <time>2013-08-28T08:41:14Z</time>
      </trkpt>
      <trkpt lat="44.10191" lon="7.38189">
        <ele>2422</ele>
        <time>2013-08-28T08:41:43Z</time>
      </trkpt>
      <trkpt lat="44.10182" lon="7.38182">
        <ele>2422</ele>
        <time>2013-08-28T08:41:46Z</time>
      </trkpt>
      <trkpt lat="44.10173" lon="7.38176">
        <ele>2422</ele>
        <time>2013-08-28T08:41:52Z</time>
      </trkpt>
      <trkpt lat="44.10182" lon="7.38188">
        <ele>2422</ele>
        <time>2013-08-28T08:42:09Z</time>
      </trkpt>
      <trkpt lat="44.10191" lon="7.38196">
        <ele>2428</ele>
        <time>2013-08-28T08:42:12Z</time>
      </trkpt>
      <trkpt lat="44.10184" lon="7.38189">
        <ele>2449</ele>
        <time>2013-08-28T08:42:24Z</time>
      </trkpt>
      <trkpt lat="44.10193" lon="7.3819">
        <ele>2424</ele>
        <time>2013-08-28T08:42:50Z</time>
      </trkpt>
      <trkpt lat="44.10185" lon="7.38182">
        <ele>2417</ele>
        <time>2013-08-28T08:43:05Z</time>
      </trkpt>
      <trkpt lat="44.10192" lon="7.38174">
        <ele>2417</ele>
        <time>2013-08-28T08:43:36Z</time>
      </trkpt>
      <trkpt lat="44.10193" lon="7.38162">
        <ele>2411</ele>
        <time>2013-08-28T08:43:52Z</time>
      </trkpt>
      <trkpt lat="44.102" lon="7.38156">
        <ele>2411</ele>
        <time>2013-08-28T08:44:26Z</time>
      </trkpt>
      <trkpt lat="44.102" lon="7.38142">
        <ele>2406</ele>
        <time>2013-08-28T08:44:44Z</time>
      </trkpt>
      <trkpt lat="44.10209" lon="7.38137">
        <ele>2399</ele>
        <time>2013-08-28T08:45:34Z</time>
      </trkpt>
      <trkpt lat="44.102" lon="7.38133">
        <ele>2399</ele>
        <time>2013-08-28T08:45:43Z</time>
      </trkpt>
      <trkpt lat="44.1019" lon="7.38128">
        <ele>2399</ele>
        <time>2013-08-28T08:45:46Z</time>
      </trkpt>
      <trkpt lat="44.1018" lon="7.38121">
        <ele>2388</ele>
        <time>2013-08-28T08:45:48Z</time>
      </trkpt>
      <trkpt lat="44.10191" lon="7.38128">
        <ele>2395</ele>
        <time>2013-08-28T08:45:57Z</time>
      </trkpt>
      <trkpt lat="44.10199" lon="7.38132">
        <ele>2395</ele>
        <time>2013-08-28T08:46:03Z</time>
      </trkpt>
      <trkpt lat="44.10208" lon="7.38137">
        <ele>2395</ele>
        <time>2013-08-28T08:46:14Z</time>
      </trkpt>
      <trkpt lat="44.10199" lon="7.38131">
        <ele>2395</ele>
        <time>2013-08-28T08:46:55Z</time>
      </trkpt>
      <trkpt lat="44.10209" lon="7.38133">
        <ele>2404</ele>
        <time>2013-08-28T08:47:07Z</time>
      </trkpt>
      <trkpt lat="44.10198" lon="7.3813">
        <ele>2398</ele>
        <time>2013-08-28T08:47:38Z</time>
      </trkpt>
      <trkpt lat="44.1019" lon="7.38124">
        <ele>2398</ele>
        <time>2013-08-28T08:48:01Z</time>
      </trkpt>
      <trkpt lat="44.10182" lon="7.3812">
        <ele>2391</ele>
        <time>2013-08-28T08:48:04Z</time>
      </trkpt>
      <trkpt lat="44.10172" lon="7.38115">
        <ele>2384</ele>
        <time>2013-08-28T08:48:09Z</time>
      </trkpt>
      <trkpt lat="44.10162" lon="7.38112">
        <ele>2378</ele>
        <time>2013-08-28T08:48:18Z</time>
      </trkpt>
      <trkpt lat="44.10173" lon="7.38119">
        <ele>2390</ele>
        <time>2013-08-28T08:48:24Z</time>
      </trkpt>
      <trkpt lat="44.10182" lon="7.38121">
        <ele>2399</ele>
        <time>2013-08-28T08:48:27Z</time>
      </trkpt>
      <trkpt lat="44.10191" lon="7.38126">
        <ele>2399</ele>
        <time>2013-08-28T08:48:35Z</time>
      </trkpt>
      <trkpt lat="44.10199" lon="7.38132">
        <ele>2399</ele>
        <time>2013-08-28T08:48:42Z</time>
      </trkpt>
      <trkpt lat="44.10209" lon="7.38136">
        <ele>2406</ele>
        <time>2013-08-28T08:48:52Z</time>
      </trkpt>
      <trkpt lat="44.1022" lon="7.3814">
        <ele>2406</ele>
        <time>2013-08-28T08:48:55Z</time>
      </trkpt>
      <trkpt lat="44.10229" lon="7.38144">
        <ele>2412</ele>
        <time>2013-08-28T08:48:58Z</time>
      </trkpt>
      <trkpt lat="44.10218" lon="7.38142">
        <ele>2407</ele>
        <time>2013-08-28T08:49:07Z</time>
      </trkpt>
      <trkpt lat="44.10213" lon="7.38132">
        <ele>2386</ele>
        <time>2013-08-28T08:49:19Z</time>
      </trkpt>
      <trkpt lat="44.10205" lon="7.38126">
        <ele>2386</ele>
        <time>2013-08-28T08:49:25Z</time>
      </trkpt>
      <trkpt lat="44.10195" lon="7.38124">
        <ele>2386</ele>
        <time>2013-08-28T08:49:37Z</time>
      </trkpt>
      <trkpt lat="44.10207" lon="7.3813">
        <ele>2392</ele>
        <time>2013-08-28T08:49:50Z</time>
      </trkpt>
      <trkpt lat="44.10198" lon="7.38129">
        <ele>2397</ele>
        <time>2013-08-28T08:50:47Z</time>
      </trkpt>
      <trkpt lat="44.10206" lon="7.38136">
        <ele>2397</ele>
        <time>2013-08-28T08:51:19Z</time>
      </trkpt>
      <trkpt lat="44.10198" lon="7.3813">
        <ele>2390</ele>
        <time>2013-08-28T08:51:38Z</time>
      </trkpt>
      <trkpt lat="44.10207" lon="7.38135">
        <ele>2399</ele>
        <time>2013-08-28T08:51:47Z</time>
      </trkpt>
      <trkpt lat="44.10197" lon="7.38133">
        <ele>2394</ele>
        <time>2013-08-28T08:52:13Z</time>
      </trkpt>
      <trkpt lat="44.10207" lon="7.38133">
        <ele>2394</ele>
        <time>2013-08-28T08:52:39Z</time>
      </trkpt>
      <trkpt lat="44.10215" lon="7.38127">
        <ele>2394</ele>
        <time>2013-08-28T08:53:17Z</time>
      </trkpt>
      <trkpt lat="44.10224" lon="7.38124">
        <ele>2394</ele>
        <time>2013-08-28T08:53:28Z</time>
      </trkpt>
      <trkpt lat="44.10233" lon="7.38121">
        <ele>2394</ele>
        <time>2013-08-28T08:53:44Z</time>
      </trkpt>
      <trkpt lat="44.10239" lon="7.38112">
        <ele>2394</ele>
        <time>2013-08-28T08:53:59Z</time>
      </trkpt>
      <trkpt lat="44.10244" lon="7.38101">
        <ele>2394</ele>
        <time>2013-08-28T08:54:09Z</time>
      </trkpt>
      <trkpt lat="44.1025" lon="7.38091">
        <ele>2394</ele>
        <time>2013-08-28T08:54:22Z</time>
      </trkpt>
      <trkpt lat="44.10253" lon="7.38079">
        <ele>2394</ele>
        <time>2013-08-28T08:55:27Z</time>
      </trkpt>
      <trkpt lat="44.10261" lon="7.38084">
        <ele>2405</ele>
        <time>2013-08-28T08:57:20Z</time>
      </trkpt>
      <trkpt lat="44.10254" lon="7.38077">
        <ele>2393</ele>
        <time>2013-08-28T09:13:08Z</time>
      </trkpt>
      <trkpt lat="44.10251" lon="7.38065">
        <ele>2398</ele>
        <time>2013-08-28T09:13:28Z</time>
      </trkpt>
      <trkpt lat="44.10249" lon="7.38052">
        <ele>2393</ele>
        <time>2013-08-28T09:13:42Z</time>
      </trkpt>
      <trkpt lat="44.10251" lon="7.3804">
        <ele>2387</ele>
        <time>2013-08-28T09:13:54Z</time>
      </trkpt>
      <trkpt lat="44.10261" lon="7.38036">
        <ele>2387</ele>
        <time>2013-08-28T09:14:04Z</time>
      </trkpt>
      <trkpt lat="44.10269" lon="7.38032">
        <ele>2382</ele>
        <time>2013-08-28T09:14:15Z</time>
      </trkpt>
      <trkpt lat="44.1027" lon="7.38019">
        <ele>2382</ele>
        <time>2013-08-28T09:14:24Z</time>
      </trkpt>
      <trkpt lat="44.10273" lon="7.38006">
        <ele>2390</ele>
        <time>2013-08-28T09:14:37Z</time>
      </trkpt>
      <trkpt lat="44.10272" lon="7.37992">
        <ele>2390</ele>
        <time>2013-08-28T09:14:46Z</time>
      </trkpt>
      <trkpt lat="44.10272" lon="7.3798">
        <ele>2390</ele>
        <time>2013-08-28T09:14:56Z</time>
      </trkpt>
      <trkpt lat="44.10276" lon="7.37968">
        <ele>2385</ele>
        <time>2013-08-28T09:15:10Z</time>
      </trkpt>
      <trkpt lat="44.10274" lon="7.37955">
        <ele>2385</ele>
        <time>2013-08-28T09:15:24Z</time>
      </trkpt>
      <trkpt lat="44.10268" lon="7.37945">
        <ele>2379</ele>
        <time>2013-08-28T09:15:36Z</time>
      </trkpt>
      <trkpt lat="44.10271" lon="7.37933">
        <ele>2379</ele>
        <time>2013-08-28T09:15:49Z</time>
      </trkpt>
      <trkpt lat="44.10261" lon="7.37933">
        <ele>2364</ele>
        <time>2013-08-28T09:16:12Z</time>
      </trkpt>
      <trkpt lat="44.10254" lon="7.37927">
        <ele>2364</ele>
        <time>2013-08-28T09:16:44Z</time>
      </trkpt>
      <trkpt lat="44.10251" lon="7.37915">
        <ele>2364</ele>
        <time>2013-08-28T09:16:56Z</time>
      </trkpt>
      <trkpt lat="44.10256" lon="7.37903">
        <ele>2364</ele>
        <time>2013-08-28T09:17:06Z</time>
      </trkpt>
      <trkpt lat="44.10261" lon="7.37892">
        <ele>2364</ele>
        <time>2013-08-28T09:17:17Z</time>
      </trkpt>
      <trkpt lat="44.10255" lon="7.37883">
        <ele>2359</ele>
        <time>2013-08-28T09:17:26Z</time>
      </trkpt>
      <trkpt lat="44.10252" lon="7.37871">
        <ele>2359</ele>
        <time>2013-08-28T09:17:42Z</time>
      </trkpt>
      <trkpt lat="44.1025" lon="7.37858">
        <ele>2350</ele>
        <time>2013-08-28T09:18:11Z</time>
      </trkpt>
      <trkpt lat="44.10252" lon="7.37846">
        <ele>2350</ele>
        <time>2013-08-28T09:18:41Z</time>
      </trkpt>
      <trkpt lat="44.1025" lon="7.37833">
        <ele>2350</ele>
        <time>2013-08-28T09:19:03Z</time>
      </trkpt>
      <trkpt lat="44.1025" lon="7.37821">
        <ele>2343</ele>
        <time>2013-08-28T09:19:20Z</time>
      </trkpt>
      <trkpt lat="44.10254" lon="7.37809">
        <ele>2343</ele>
        <time>2013-08-28T09:19:44Z</time>
      </trkpt>
      <trkpt lat="44.10247" lon="7.378">
        <ele>2343</ele>
        <time>2013-08-28T09:20:04Z</time>
      </trkpt>
      <trkpt lat="44.10241" lon="7.37791">
        <ele>2343</ele>
        <time>2013-08-28T09:20:18Z</time>
      </trkpt>
      <trkpt lat="44.1024" lon="7.37778">
        <ele>2343</ele>
        <time>2013-08-28T09:20:37Z</time>
      </trkpt>
      <trkpt lat="44.10241" lon="7.37766">
        <ele>2343</ele>
        <time>2013-08-28T09:20:55Z</time>
      </trkpt>
      <trkpt lat="44.10247" lon="7.37757">
        <ele>2335</ele>
        <time>2013-08-28T09:21:10Z</time>
      </trkpt>
      <trkpt lat="44.10241" lon="7.37747">
        <ele>2329</ele>
        <time>2013-08-28T09:21:30Z</time>
      </trkpt>
      <trkpt lat="44.10244" lon="7.37735">
        <ele>2324</ele>
        <time>2013-08-28T09:21:50Z</time>
      </trkpt>
      <trkpt lat="44.10247" lon="7.37723">
        <ele>2329</ele>
        <time>2013-08-28T09:22:08Z</time>
      </trkpt>
      <trkpt lat="44.1024" lon="7.37715">
        <ele>2320</ele>
        <time>2013-08-28T09:22:21Z</time>
      </trkpt>
      <trkpt lat="44.10237" lon="7.37704">
        <ele>2320</ele>
        <time>2013-08-28T09:22:35Z</time>
      </trkpt>
      <trkpt lat="44.1024" lon="7.37692">
        <ele>2311</ele>
        <time>2013-08-28T09:22:54Z</time>
      </trkpt>
      <trkpt lat="44.10244" lon="7.37681">
        <ele>2311</ele>
        <time>2013-08-28T09:23:08Z</time>
      </trkpt>
      <trkpt lat="44.10245" lon="7.37668">
        <ele>2311</ele>
        <time>2013-08-28T09:23:23Z</time>
      </trkpt>
      <trkpt lat="44.10253" lon="7.37661">
        <ele>2311</ele>
        <time>2013-08-28T09:23:31Z</time>
      </trkpt>
      <trkpt lat="44.10249" lon="7.37649">
        <ele>2316</ele>
        <time>2013-08-28T09:23:46Z</time>
      </trkpt>
      <trkpt lat="44.10247" lon="7.37636">
        <ele>2316</ele>
        <time>2013-08-28T09:24:00Z</time>
      </trkpt>
      <trkpt lat="44.1025" lon="7.37624">
        <ele>2303</ele>
        <time>2013-08-28T09:24:24Z</time>
      </trkpt>
      <trkpt lat="44.10243" lon="7.37615">
        <ele>2303</ele>
        <time>2013-08-28T09:24:37Z</time>
      </trkpt>
      <trkpt lat="44.10239" lon="7.37604">
        <ele>2310</ele>
        <time>2013-08-28T09:24:51Z</time>
      </trkpt>
      <trkpt lat="44.10232" lon="7.37593">
        <ele>2310</ele>
        <time>2013-08-28T09:25:05Z</time>
      </trkpt>
      <trkpt lat="44.10229" lon="7.37582">
        <ele>2310</ele>
        <time>2013-08-28T09:25:22Z</time>
      </trkpt>
      <trkpt lat="44.10232" lon="7.37569">
        <ele>2304</ele>
        <time>2013-08-28T09:25:34Z</time>
      </trkpt>
      <trkpt lat="44.10232" lon="7.37556">
        <ele>2304</ele>
        <time>2013-08-28T09:25:50Z</time>
      </trkpt>
      <trkpt lat="44.1023" lon="7.37544">
        <ele>2304</ele>
        <time>2013-08-28T09:26:06Z</time>
      </trkpt>
      <trkpt lat="44.1023" lon="7.37531">
        <ele>2304</ele>
        <time>2013-08-28T09:26:45Z</time>
      </trkpt>
      <trkpt lat="44.10229" lon="7.37519">
        <ele>2304</ele>
        <time>2013-08-28T09:27:03Z</time>
      </trkpt>
      <trkpt lat="44.10226" lon="7.37507">
        <ele>2298</ele>
        <time>2013-08-28T09:27:31Z</time>
      </trkpt>
      <trkpt lat="44.10224" lon="7.37494">
        <ele>2298</ele>
        <time>2013-08-28T09:27:47Z</time>
      </trkpt>
      <trkpt lat="44.10218" lon="7.37485">
        <ele>2291</ele>
        <time>2013-08-28T09:28:07Z</time>
      </trkpt>
      <trkpt lat="44.1022" lon="7.37472">
        <ele>2291</ele>
        <time>2013-08-28T09:28:22Z</time>
      </trkpt>
      <trkpt lat="44.10212" lon="7.37465">
        <ele>2284</ele>
        <time>2013-08-28T09:29:13Z</time>
      </trkpt>
      <trkpt lat="44.10215" lon="7.37453">
        <ele>2284</ele>
        <time>2013-08-28T09:29:38Z</time>
      </trkpt>
      <trkpt lat="44.10211" lon="7.37441">
        <ele>2284</ele>
        <time>2013-08-28T09:30:08Z</time>
      </trkpt>
      <trkpt lat="44.10202" lon="7.37442">
        <ele>2273</ele>
        <time>2013-08-28T09:30:31Z</time>
      </trkpt>
      <trkpt lat="44.10195" lon="7.37434">
        <ele>2273</ele>
        <time>2013-08-28T09:31:01Z</time>
      </trkpt>
      <trkpt lat="44.10187" lon="7.37425">
        <ele>2273</ele>
        <time>2013-08-28T09:31:21Z</time>
      </trkpt>
      <trkpt lat="44.10179" lon="7.37419">
        <ele>2273</ele>
        <time>2013-08-28T09:31:40Z</time>
      </trkpt>
      <trkpt lat="44.10171" lon="7.37414">
        <ele>2273</ele>
        <time>2013-08-28T09:32:07Z</time>
      </trkpt>
      <trkpt lat="44.10164" lon="7.37406">
        <ele>2273</ele>
        <time>2013-08-28T09:32:24Z</time>
      </trkpt>
      <trkpt lat="44.10156" lon="7.37402">
        <ele>2265</ele>
        <time>2013-08-28T09:32:34Z</time>
      </trkpt>
      <trkpt lat="44.10149" lon="7.37393">
        <ele>2265</ele>
        <time>2013-08-28T09:32:53Z</time>
      </trkpt>
      <trkpt lat="44.10142" lon="7.37386">
        <ele>2259</ele>
        <time>2013-08-28T09:33:10Z</time>
      </trkpt>
      <trkpt lat="44.10136" lon="7.37375">
        <ele>2250</ele>
        <time>2013-08-28T09:34:30Z</time>
      </trkpt>
      <trkpt lat="44.10136" lon="7.37362">
        <ele>2259</ele>
        <time>2013-08-28T09:34:48Z</time>
      </trkpt>
      <trkpt lat="44.10131" lon="7.37352">
        <ele>2252</ele>
        <time>2013-08-28T09:35:04Z</time>
      </trkpt>
      <trkpt lat="44.10127" lon="7.3734">
        <ele>2252</ele>
        <time>2013-08-28T09:35:18Z</time>
      </trkpt>
      <trkpt lat="44.10127" lon="7.37327">
        <ele>2245</ele>
        <time>2013-08-28T09:35:29Z</time>
      </trkpt>
      <trkpt lat="44.10124" lon="7.37316">
        <ele>2245</ele>
        <time>2013-08-28T09:35:49Z</time>
      </trkpt>
      <trkpt lat="44.10123" lon="7.37303">
        <ele>2245</ele>
        <time>2013-08-28T09:36:06Z</time>
      </trkpt>
      <trkpt lat="44.10123" lon="7.37291">
        <ele>2245</ele>
        <time>2013-08-28T09:36:29Z</time>
      </trkpt>
      <trkpt lat="44.10121" lon="7.37278">
        <ele>2245</ele>
        <time>2013-08-28T09:36:58Z</time>
      </trkpt>
      <trkpt lat="44.10118" lon="7.37266">
        <ele>2232</ele>
        <time>2013-08-28T09:37:16Z</time>
      </trkpt>
      <trkpt lat="44.10119" lon="7.37254">
        <ele>2239</ele>
        <time>2013-08-28T09:37:29Z</time>
      </trkpt>
      <trkpt lat="44.10116" lon="7.37242">
        <ele>2239</ele>
        <time>2013-08-28T09:37:40Z</time>
      </trkpt>
      <trkpt lat="44.10112" lon="7.3723">
        <ele>2244</ele>
        <time>2013-08-28T09:37:54Z</time>
      </trkpt>
      <trkpt lat="44.10114" lon="7.37218">
        <ele>2244</ele>
        <time>2013-08-28T09:38:08Z</time>
      </trkpt>
      <trkpt lat="44.1011" lon="7.37207">
        <ele>2236</ele>
        <time>2013-08-28T09:38:24Z</time>
      </trkpt>
      <trkpt lat="44.10107" lon="7.37195">
        <ele>2236</ele>
        <time>2013-08-28T09:38:45Z</time>
      </trkpt>
      <trkpt lat="44.10099" lon="7.37189">
        <ele>2236</ele>
        <time>2013-08-28T09:39:09Z</time>
      </trkpt>
      <trkpt lat="44.10108" lon="7.37187">
        <ele>2230</ele>
        <time>2013-08-28T09:39:32Z</time>
      </trkpt>
      <trkpt lat="44.10099" lon="7.37183">
        <ele>2230</ele>
        <time>2013-08-28T09:40:34Z</time>
      </trkpt>
      <trkpt lat="44.10098" lon="7.3717">
        <ele>2230</ele>
        <time>2013-08-28T09:40:52Z</time>
      </trkpt>
      <trkpt lat="44.10095" lon="7.37158">
        <ele>2230</ele>
        <time>2013-08-28T09:41:08Z</time>
      </trkpt>
      <trkpt lat="44.10098" lon="7.37147">
        <ele>2220</ele>
        <time>2013-08-28T09:41:22Z</time>
      </trkpt>
      <trkpt lat="44.10102" lon="7.37135">
        <ele>2220</ele>
        <time>2013-08-28T09:41:36Z</time>
      </trkpt>
      <trkpt lat="44.10107" lon="7.37124">
        <ele>2220</ele>
        <time>2013-08-28T09:41:48Z</time>
      </trkpt>
      <trkpt lat="44.10101" lon="7.37114">
        <ele>2215</ele>
        <time>2013-08-28T09:42:00Z</time>
      </trkpt>
      <trkpt lat="44.10099" lon="7.37102">
        <ele>2215</ele>
        <time>2013-08-28T09:42:16Z</time>
      </trkpt>
      <trkpt lat="44.10095" lon="7.37091">
        <ele>2215</ele>
        <time>2013-08-28T09:42:32Z</time>
      </trkpt>
      <trkpt lat="44.10094" lon="7.37078">
        <ele>2208</ele>
        <time>2013-08-28T09:42:49Z</time>
      </trkpt>
      <trkpt lat="44.10094" lon="7.37065">
        <ele>2208</ele>
        <time>2013-08-28T09:43:04Z</time>
      </trkpt>
      <trkpt lat="44.1009" lon="7.37054">
        <ele>2208</ele>
        <time>2013-08-28T09:43:17Z</time>
      </trkpt>
      <trkpt lat="44.10089" lon="7.37041">
        <ele>2208</ele>
        <time>2013-08-28T09:43:36Z</time>
      </trkpt>
      <trkpt lat="44.10098" lon="7.37044">
        <ele>2213</ele>
        <time>2013-08-28T09:44:10Z</time>
      </trkpt>
      <trkpt lat="44.10091" lon="7.37036">
        <ele>2202</ele>
        <time>2013-08-28T09:44:35Z</time>
      </trkpt>
      <trkpt lat="44.10095" lon="7.37048">
        <ele>2202</ele>
        <time>2013-08-28T09:45:18Z</time>
      </trkpt>
      <trkpt lat="44.1009" lon="7.37038">
        <ele>2202</ele>
        <time>2013-08-28T09:46:41Z</time>
      </trkpt>
      <trkpt lat="44.10092" lon="7.37026">
        <ele>2202</ele>
        <time>2013-08-28T09:48:40Z</time>
      </trkpt>
      <trkpt lat="44.10088" lon="7.37015">
        <ele>2196</ele>
        <time>2013-08-28T09:48:57Z</time>
      </trkpt>
      <trkpt lat="44.10093" lon="7.37004">
        <ele>2196</ele>
        <time>2013-08-28T09:49:11Z</time>
      </trkpt>
      <trkpt lat="44.1009" lon="7.36991">
        <ele>2196</ele>
        <time>2013-08-28T09:49:27Z</time>
      </trkpt>
      <trkpt lat="44.10085" lon="7.36982">
        <ele>2196</ele>
        <time>2013-08-28T09:49:39Z</time>
      </trkpt>
      <trkpt lat="44.10079" lon="7.36972">
        <ele>2189</ele>
        <time>2013-08-28T09:49:51Z</time>
      </trkpt>
      <trkpt lat="44.10074" lon="7.36962">
        <ele>2195</ele>
        <time>2013-08-28T09:50:17Z</time>
      </trkpt>
      <trkpt lat="44.10075" lon="7.36949">
        <ele>2188</ele>
        <time>2013-08-28T09:50:31Z</time>
      </trkpt>
      <trkpt lat="44.10071" lon="7.36937">
        <ele>2182</ele>
        <time>2013-08-28T09:50:47Z</time>
      </trkpt>
      <trkpt lat="44.10064" lon="7.36929">
        <ele>2182</ele>
        <time>2013-08-28T09:51:12Z</time>
      </trkpt>
      <trkpt lat="44.10056" lon="7.36923">
        <ele>2190</ele>
        <time>2013-08-28T09:51:41Z</time>
      </trkpt>
      <trkpt lat="44.1005" lon="7.36913">
        <ele>2190</ele>
        <time>2013-08-28T09:52:09Z</time>
      </trkpt>
      <trkpt lat="44.10052" lon="7.36902">
        <ele>2182</ele>
        <time>2013-08-28T09:53:48Z</time>
      </trkpt>
      <trkpt lat="44.10061" lon="7.36904">
        <ele>2182</ele>
        <time>2013-08-28T09:55:15Z</time>
      </trkpt>
      <trkpt lat="44.10066" lon="7.36893">
        <ele>2166</ele>
        <time>2013-08-28T09:56:06Z</time>
      </trkpt>
      <trkpt lat="44.1007" lon="7.36882">
        <ele>2166</ele>
        <time>2013-08-28T09:56:21Z</time>
      </trkpt>
      <trkpt lat="44.10068" lon="7.36869">
        <ele>2166</ele>
        <time>2013-08-28T09:56:37Z</time>
      </trkpt>
      <trkpt lat="44.10076" lon="7.36866">
        <ele>2159</ele>
        <time>2013-08-28T09:56:51Z</time>
      </trkpt>
      <trkpt lat="44.10085" lon="7.36858">
        <ele>2159</ele>
        <time>2013-08-28T09:58:35Z</time>
      </trkpt>
      <trkpt lat="44.10093" lon="7.36852">
        <ele>2154</ele>
        <time>2013-08-28T09:59:17Z</time>
      </trkpt>
      <trkpt lat="44.10095" lon="7.36865">
        <ele>2154</ele>
        <time>2013-08-28T09:59:35Z</time>
      </trkpt>
      <trkpt lat="44.10104" lon="7.36861">
        <ele>2154</ele>
        <time>2013-08-28T09:59:41Z</time>
      </trkpt>
      <trkpt lat="44.10095" lon="7.36864">
        <ele>2154</ele>
        <time>2013-08-28T10:01:04Z</time>
      </trkpt>
      <trkpt lat="44.10092" lon="7.36852">
        <ele>2154</ele>
        <time>2013-08-28T10:01:22Z</time>
      </trkpt>
      <trkpt lat="44.10083" lon="7.36846">
        <ele>2160</ele>
        <time>2013-08-28T10:01:38Z</time>
      </trkpt>
      <trkpt lat="44.10074" lon="7.36845">
        <ele>2160</ele>
        <time>2013-08-28T10:01:51Z</time>
      </trkpt>
      <trkpt lat="44.10066" lon="7.36841">
        <ele>2160</ele>
        <time>2013-08-28T10:02:24Z</time>
      </trkpt>
      <trkpt lat="44.10063" lon="7.36853">
        <ele>2160</ele>
        <time>2013-08-28T10:03:00Z</time>
      </trkpt>
      <trkpt lat="44.10069" lon="7.36863">
        <ele>2160</ele>
        <time>2013-08-28T10:03:19Z</time>
      </trkpt>
      <trkpt lat="44.10079" lon="7.36866">
        <ele>2166</ele>
        <time>2013-08-28T10:03:37Z</time>
      </trkpt>
      <trkpt lat="44.10086" lon="7.36875">
        <ele>2157</ele>
        <time>2013-08-28T10:04:13Z</time>
      </trkpt>
      <trkpt lat="44.10095" lon="7.36878">
        <ele>2157</ele>
        <time>2013-08-28T10:04:35Z</time>
      </trkpt>
      <trkpt lat="44.10104" lon="7.36882">
        <ele>2157</ele>
        <time>2013-08-28T10:04:53Z</time>
      </trkpt>
      <trkpt lat="44.10107" lon="7.3687">
        <ele>2138</ele>
        <time>2013-08-28T10:06:05Z</time>
      </trkpt>
      <trkpt lat="44.10112" lon="7.3686">
        <ele>2138</ele>
        <time>2013-08-28T10:06:21Z</time>
      </trkpt>
      <trkpt lat="44.10111" lon="7.36848">
        <ele>2138</ele>
        <time>2013-08-28T10:06:39Z</time>
      </trkpt>
      <trkpt lat="44.10116" lon="7.36838">
        <ele>2138</ele>
        <time>2013-08-28T10:06:56Z</time>
      </trkpt>
      <trkpt lat="44.1012" lon="7.36826">
        <ele>2131</ele>
        <time>2013-08-28T10:07:15Z</time>
      </trkpt>
      <trkpt lat="44.10116" lon="7.36814">
        <ele>2131</ele>
        <time>2013-08-28T10:07:36Z</time>
      </trkpt>
      <trkpt lat="44.10118" lon="7.36801">
        <ele>2117</ele>
        <time>2013-08-28T10:08:02Z</time>
      </trkpt>
      <trkpt lat="44.10125" lon="7.36794">
        <ele>2117</ele>
        <time>2013-08-28T10:08:12Z</time>
      </trkpt>
      <trkpt lat="44.10131" lon="7.36784">
        <ele>2117</ele>
        <time>2013-08-28T10:08:29Z</time>
      </trkpt>
      <trkpt lat="44.10136" lon="7.36772">
        <ele>2117</ele>
        <time>2013-08-28T10:08:48Z</time>
      </trkpt>
      <trkpt lat="44.10136" lon="7.3676">
        <ele>2117</ele>
        <time>2013-08-28T10:09:08Z</time>
      </trkpt>
      <trkpt lat="44.10145" lon="7.36759">
        <ele>2117</ele>
        <time>2013-08-28T10:09:22Z</time>
      </trkpt>
      <trkpt lat="44.10148" lon="7.36746">
        <ele>2117</ele>
        <time>2013-08-28T10:09:40Z</time>
      </trkpt>
      <trkpt lat="44.10151" lon="7.36734">
        <ele>2117</ele>
        <time>2013-08-28T10:09:52Z</time>
      </trkpt>
      <trkpt lat="44.1016" lon="7.36734">
        <ele>2117</ele>
        <time>2013-08-28T10:10:03Z</time>
      </trkpt>
      <trkpt lat="44.1015" lon="7.36734">
        <ele>2106</ele>
        <time>2013-08-28T10:10:35Z</time>
      </trkpt>
      <trkpt lat="44.10143" lon="7.36725">
        <ele>2113</ele>
        <time>2013-08-28T10:11:07Z</time>
      </trkpt>
      <trkpt lat="44.10134" lon="7.36731">
        <ele>2113</ele>
        <time>2013-08-28T10:11:23Z</time>
      </trkpt>
      <trkpt lat="44.10134" lon="7.36743">
        <ele>2113</ele>
        <time>2013-08-28T10:11:39Z</time>
      </trkpt>
      <trkpt lat="44.10143" lon="7.36743">
        <ele>2113</ele>
        <time>2013-08-28T10:15:50Z</time>
      </trkpt>
      <trkpt lat="44.10134" lon="7.36743">
        <ele>2113</ele>
        <time>2013-08-28T10:29:03Z</time>
      </trkpt>
      <trkpt lat="44.10143" lon="7.36738">
        <ele>2113</ele>
        <time>2013-08-28T10:43:18Z</time>
      </trkpt>
      <trkpt lat="44.10153" lon="7.36743">
        <ele>2123</ele>
        <time>2013-08-28T10:43:30Z</time>
      </trkpt>
      <trkpt lat="44.10161" lon="7.36737">
        <ele>2123</ele>
        <time>2013-08-28T10:43:39Z</time>
      </trkpt>
      <trkpt lat="44.10165" lon="7.36726">
        <ele>2114</ele>
        <time>2013-08-28T10:43:58Z</time>
      </trkpt>
      <trkpt lat="44.10173" lon="7.36717">
        <ele>2108</ele>
        <time>2013-08-28T10:44:20Z</time>
      </trkpt>
      <trkpt lat="44.10182" lon="7.36716">
        <ele>2108</ele>
        <time>2013-08-28T10:44:39Z</time>
      </trkpt>
      <trkpt lat="44.10191" lon="7.36712">
        <ele>2108</ele>
        <time>2013-08-28T10:44:58Z</time>
      </trkpt>
      <trkpt lat="44.10197" lon="7.36702">
        <ele>2102</ele>
        <time>2013-08-28T10:45:10Z</time>
      </trkpt>
      <trkpt lat="44.10198" lon="7.3669">
        <ele>2102</ele>
        <time>2013-08-28T10:45:22Z</time>
      </trkpt>
      <trkpt lat="44.10203" lon="7.3668">
        <ele>2102</ele>
        <time>2013-08-28T10:45:35Z</time>
      </trkpt>
      <trkpt lat="44.10198" lon="7.36669">
        <ele>2102</ele>
        <time>2013-08-28T10:45:46Z</time>
      </trkpt>
      <trkpt lat="44.10201" lon="7.36657">
        <ele>2102</ele>
        <time>2013-08-28T10:45:56Z</time>
      </trkpt>
      <trkpt lat="44.10202" lon="7.36644">
        <ele>2102</ele>
        <time>2013-08-28T10:46:06Z</time>
      </trkpt>
      <trkpt lat="44.10202" lon="7.3663">
        <ele>2095</ele>
        <time>2013-08-28T10:46:17Z</time>
      </trkpt>
      <trkpt lat="44.10202" lon="7.36618">
        <ele>2095</ele>
        <time>2013-08-28T10:46:28Z</time>
      </trkpt>
      <trkpt lat="44.10209" lon="7.36609">
        <ele>2095</ele>
        <time>2013-08-28T10:46:44Z</time>
      </trkpt>
      <trkpt lat="44.1021" lon="7.36596">
        <ele>2089</ele>
        <time>2013-08-28T10:46:57Z</time>
      </trkpt>
      <trkpt lat="44.10215" lon="7.36586">
        <ele>2084</ele>
        <time>2013-08-28T10:47:29Z</time>
      </trkpt>
      <trkpt lat="44.10213" lon="7.36574">
        <ele>2084</ele>
        <time>2013-08-28T10:48:00Z</time>
      </trkpt>
      <trkpt lat="44.10209" lon="7.36561">
        <ele>2084</ele>
        <time>2013-08-28T10:48:12Z</time>
      </trkpt>
      <trkpt lat="44.10202" lon="7.36554">
        <ele>2078</ele>
        <time>2013-08-28T10:48:22Z</time>
      </trkpt>
      <trkpt lat="44.102" lon="7.36541">
        <ele>2078</ele>
        <time>2013-08-28T10:48:35Z</time>
      </trkpt>
      <trkpt lat="44.10198" lon="7.36529">
        <ele>2068</ele>
        <time>2013-08-28T10:48:52Z</time>
      </trkpt>
      <trkpt lat="44.10194" lon="7.36517">
        <ele>2068</ele>
        <time>2013-08-28T10:49:09Z</time>
      </trkpt>
      <trkpt lat="44.10194" lon="7.36504">
        <ele>2068</ele>
        <time>2013-08-28T10:49:25Z</time>
      </trkpt>
      <trkpt lat="44.10196" lon="7.36492">
        <ele>2060</ele>
        <time>2013-08-28T10:49:42Z</time>
      </trkpt>
      <trkpt lat="44.10201" lon="7.36481">
        <ele>2054</ele>
        <time>2013-08-28T10:49:52Z</time>
      </trkpt>
      <trkpt lat="44.10193" lon="7.36477">
        <ele>2061</ele>
        <time>2013-08-28T10:50:01Z</time>
      </trkpt>
      <trkpt lat="44.1019" lon="7.36465">
        <ele>2061</ele>
        <time>2013-08-28T10:50:14Z</time>
      </trkpt>
      <trkpt lat="44.10185" lon="7.36454">
        <ele>2061</ele>
        <time>2013-08-28T10:50:29Z</time>
      </trkpt>
      <trkpt lat="44.10179" lon="7.36443">
        <ele>2047</ele>
        <time>2013-08-28T10:50:52Z</time>
      </trkpt>
      <trkpt lat="44.1017" lon="7.3644">
        <ele>2056</ele>
        <time>2013-08-28T10:51:14Z</time>
      </trkpt>
      <trkpt lat="44.1016" lon="7.36439">
        <ele>2045</ele>
        <time>2013-08-28T10:51:37Z</time>
      </trkpt>
      <trkpt lat="44.10151" lon="7.36444">
        <ele>2039</ele>
        <time>2013-08-28T10:51:49Z</time>
      </trkpt>
      <trkpt lat="44.10139" lon="7.36438">
        <ele>2047</ele>
        <time>2013-08-28T10:52:01Z</time>
      </trkpt>
      <trkpt lat="44.10131" lon="7.36432">
        <ele>2057</ele>
        <time>2013-08-28T10:52:03Z</time>
      </trkpt>
      <trkpt lat="44.10123" lon="7.36425">
        <ele>2057</ele>
        <time>2013-08-28T10:52:12Z</time>
      </trkpt>
      <trkpt lat="44.1012" lon="7.36413">
        <ele>2037</ele>
        <time>2013-08-28T10:52:51Z</time>
      </trkpt>
      <trkpt lat="44.1011" lon="7.36409">
        <ele>2037</ele>
        <time>2013-08-28T10:53:01Z</time>
      </trkpt>
      <trkpt lat="44.10101" lon="7.36408">
        <ele>2037</ele>
        <time>2013-08-28T10:53:09Z</time>
      </trkpt>
      <trkpt lat="44.10092" lon="7.36403">
        <ele>2037</ele>
        <time>2013-08-28T10:53:17Z</time>
      </trkpt>
      <trkpt lat="44.1009" lon="7.36391">
        <ele>2029</ele>
        <time>2013-08-28T10:53:26Z</time>
      </trkpt>
      <trkpt lat="44.10081" lon="7.3639">
        <ele>2029</ele>
        <time>2013-08-28T10:53:34Z</time>
      </trkpt>
      <trkpt lat="44.10072" lon="7.36383">
        <ele>2029</ele>
        <time>2013-08-28T10:53:50Z</time>
      </trkpt>
      <trkpt lat="44.10064" lon="7.3639">
        <ele>2029</ele>
        <time>2013-08-28T10:54:08Z</time>
      </trkpt>
      <trkpt lat="44.10073" lon="7.36386">
        <ele>2029</ele>
        <time>2013-08-28T10:54:45Z</time>
      </trkpt>
      <trkpt lat="44.10064" lon="7.36384">
        <ele>2029</ele>
        <time>2013-08-28T10:54:54Z</time>
      </trkpt>
      <trkpt lat="44.10053" lon="7.36391">
        <ele>2029</ele>
        <time>2013-08-28T10:55:02Z</time>
      </trkpt>
      <trkpt lat="44.1005" lon="7.3638">
        <ele>2023</ele>
        <time>2013-08-28T10:55:21Z</time>
      </trkpt>
      <trkpt lat="44.10054" lon="7.36368">
        <ele>2023</ele>
        <time>2013-08-28T10:55:34Z</time>
      </trkpt>
      <trkpt lat="44.10064" lon="7.3636">
        <ele>2016</ele>
        <time>2013-08-28T10:55:51Z</time>
      </trkpt>
      <trkpt lat="44.10067" lon="7.36346">
        <ele>2016</ele>
        <time>2013-08-28T10:56:12Z</time>
      </trkpt>
      <trkpt lat="44.10059" lon="7.36341">
        <ele>2016</ele>
        <time>2013-08-28T10:56:18Z</time>
      </trkpt>
      <trkpt lat="44.10048" lon="7.36345">
        <ele>2016</ele>
        <time>2013-08-28T10:56:31Z</time>
      </trkpt>
      <trkpt lat="44.1004" lon="7.36341">
        <ele>2016</ele>
        <time>2013-08-28T10:56:38Z</time>
      </trkpt>
      <trkpt lat="44.10031" lon="7.36346">
        <ele>2016</ele>
        <time>2013-08-28T10:56:47Z</time>
      </trkpt>
      <trkpt lat="44.10022" lon="7.36345">
        <ele>2016</ele>
        <time>2013-08-28T10:57:05Z</time>
      </trkpt>
      <trkpt lat="44.10015" lon="7.36334">
        <ele>2024</ele>
        <time>2013-08-28T10:57:15Z</time>
      </trkpt>
      <trkpt lat="44.10009" lon="7.36343">
        <ele>2018</ele>
        <time>2013-08-28T10:57:25Z</time>
      </trkpt>
      <trkpt lat="44.10004" lon="7.36333">
        <ele>2010</ele>
        <time>2013-08-28T10:57:45Z</time>
      </trkpt>
      <trkpt lat="44.10002" lon="7.36318">
        <ele>2010</ele>
        <time>2013-08-28T10:57:59Z</time>
      </trkpt>
      <trkpt lat="44.09992" lon="7.36315">
        <ele>2010</ele>
        <time>2013-08-28T10:58:14Z</time>
      </trkpt>
      <trkpt lat="44.09994" lon="7.36299">
        <ele>2001</ele>
        <time>2013-08-28T10:58:29Z</time>
      </trkpt>
      <trkpt lat="44.09995" lon="7.36286">
        <ele>2001</ele>
        <time>2013-08-28T10:58:43Z</time>
      </trkpt>
      <trkpt lat="44.09986" lon="7.36279">
        <ele>2001</ele>
        <time>2013-08-28T10:58:59Z</time>
      </trkpt>
      <trkpt lat="44.0998" lon="7.36269">
        <ele>2001</ele>
        <time>2013-08-28T10:59:07Z</time>
      </trkpt>
      <trkpt lat="44.09971" lon="7.36271">
        <ele>2001</ele>
        <time>2013-08-28T10:59:10Z</time>
      </trkpt>
      <trkpt lat="44.09962" lon="7.36273">
        <ele>2001</ele>
        <time>2013-08-28T10:59:12Z</time>
      </trkpt>
      <trkpt lat="44.09952" lon="7.3627">
        <ele>2001</ele>
        <time>2013-08-28T10:59:15Z</time>
      </trkpt>
      <trkpt lat="44.09944" lon="7.36261">
        <ele>2001</ele>
        <time>2013-08-28T10:59:36Z</time>
      </trkpt>
      <trkpt lat="44.09935" lon="7.3626">
        <ele>1985</ele>
        <time>2013-08-28T11:00:17Z</time>
      </trkpt>
      <trkpt lat="44.09927" lon="7.36265">
        <ele>1985</ele>
        <time>2013-08-28T11:00:26Z</time>
      </trkpt>
      <trkpt lat="44.09916" lon="7.36262">
        <ele>1990</ele>
        <time>2013-08-28T11:00:35Z</time>
      </trkpt>
      <trkpt lat="44.09908" lon="7.36267">
        <ele>1981</ele>
        <time>2013-08-28T11:00:53Z</time>
      </trkpt>
      <trkpt lat="44.09898" lon="7.36266">
        <ele>1981</ele>
        <time>2013-08-28T11:00:59Z</time>
      </trkpt>
      <trkpt lat="44.09889" lon="7.36265">
        <ele>1981</ele>
        <time>2013-08-28T11:01:08Z</time>
      </trkpt>
      <trkpt lat="44.0988" lon="7.36259">
        <ele>1981</ele>
        <time>2013-08-28T11:01:20Z</time>
      </trkpt>
      <trkpt lat="44.09872" lon="7.36263">
        <ele>1975</ele>
        <time>2013-08-28T11:01:33Z</time>
      </trkpt>
      <trkpt lat="44.09861" lon="7.36265">
        <ele>1975</ele>
        <time>2013-08-28T11:02:03Z</time>
      </trkpt>
      <trkpt lat="44.09853" lon="7.36258">
        <ele>1975</ele>
        <time>2013-08-28T11:02:15Z</time>
      </trkpt>
      <trkpt lat="44.09843" lon="7.36256">
        <ele>1975</ele>
        <time>2013-08-28T11:02:39Z</time>
      </trkpt>
      <trkpt lat="44.09832" lon="7.36255">
        <ele>1975</ele>
        <time>2013-08-28T11:03:03Z</time>
      </trkpt>
      <trkpt lat="44.09822" lon="7.36249">
        <ele>1975</ele>
        <time>2013-08-28T11:03:22Z</time>
      </trkpt>
      <trkpt lat="44.09813" lon="7.36249">
        <ele>1965</ele>
        <time>2013-08-28T11:03:32Z</time>
      </trkpt>
      <trkpt lat="44.09805" lon="7.36246">
        <ele>1957</ele>
        <time>2013-08-28T11:03:52Z</time>
      </trkpt>
      <trkpt lat="44.09796" lon="7.36244">
        <ele>1957</ele>
        <time>2013-08-28T11:03:58Z</time>
      </trkpt>
      <trkpt lat="44.09787" lon="7.36237">
        <ele>1957</ele>
        <time>2013-08-28T11:04:11Z</time>
      </trkpt>
      <trkpt lat="44.0978" lon="7.3623">
        <ele>1957</ele>
        <time>2013-08-28T11:04:20Z</time>
      </trkpt>
      <trkpt lat="44.09771" lon="7.36226">
        <ele>1964</ele>
        <time>2013-08-28T11:04:31Z</time>
      </trkpt>
      <trkpt lat="44.09763" lon="7.36222">
        <ele>1964</ele>
        <time>2013-08-28T11:04:46Z</time>
      </trkpt>
      <trkpt lat="44.09753" lon="7.36221">
        <ele>1959</ele>
        <time>2013-08-28T11:04:55Z</time>
      </trkpt>
      <trkpt lat="44.09744" lon="7.36219">
        <ele>1959</ele>
        <time>2013-08-28T11:05:14Z</time>
      </trkpt>
      <trkpt lat="44.09734" lon="7.36216">
        <ele>1959</ele>
        <time>2013-08-28T11:05:26Z</time>
      </trkpt>
      <trkpt lat="44.09724" lon="7.36223">
        <ele>1964</ele>
        <time>2013-08-28T11:05:34Z</time>
      </trkpt>
      <trkpt lat="44.09718" lon="7.36213">
        <ele>1964</ele>
        <time>2013-08-28T11:05:50Z</time>
      </trkpt>
      <trkpt lat="44.09708" lon="7.36208">
        <ele>1972</ele>
        <time>2013-08-28T11:06:02Z</time>
      </trkpt>
      <trkpt lat="44.09699" lon="7.36204">
        <ele>1972</ele>
        <time>2013-08-28T11:06:16Z</time>
      </trkpt>
      <trkpt lat="44.0969" lon="7.36208">
        <ele>1980</ele>
        <time>2013-08-28T11:06:39Z</time>
      </trkpt>
      <trkpt lat="44.09685" lon="7.36196">
        <ele>1980</ele>
        <time>2013-08-28T11:06:50Z</time>
      </trkpt>
      <trkpt lat="44.09679" lon="7.36186">
        <ele>1980</ele>
        <time>2013-08-28T11:06:59Z</time>
      </trkpt>
      <trkpt lat="44.0967" lon="7.36184">
        <ele>1986</ele>
        <time>2013-08-28T11:07:06Z</time>
      </trkpt>
      <trkpt lat="44.09661" lon="7.36179">
        <ele>1986</ele>
        <time>2013-08-28T11:07:12Z</time>
      </trkpt>
      <trkpt lat="44.09651" lon="7.36178">
        <ele>1986</ele>
        <time>2013-08-28T11:07:18Z</time>
      </trkpt>
      <trkpt lat="44.09641" lon="7.3618">
        <ele>1986</ele>
        <time>2013-08-28T11:07:24Z</time>
      </trkpt>
      <trkpt lat="44.09631" lon="7.3618">
        <ele>1986</ele>
        <time>2013-08-28T11:07:32Z</time>
      </trkpt>
      <trkpt lat="44.09622" lon="7.36175">
        <ele>1991</ele>
        <time>2013-08-28T11:07:41Z</time>
      </trkpt>
      <trkpt lat="44.09613" lon="7.3618">
        <ele>1991</ele>
        <time>2013-08-28T11:07:46Z</time>
      </trkpt>
      <trkpt lat="44.09605" lon="7.36172">
        <ele>1991</ele>
        <time>2013-08-28T11:07:56Z</time>
      </trkpt>
      <trkpt lat="44.09596" lon="7.36178">
        <ele>1991</ele>
        <time>2013-08-28T11:08:03Z</time>
      </trkpt>
      <trkpt lat="44.0959" lon="7.36187">
        <ele>1991</ele>
        <time>2013-08-28T11:08:43Z</time>
      </trkpt>
      <trkpt lat="44.09595" lon="7.36177">
        <ele>2000</ele>
        <time>2013-08-28T11:09:24Z</time>
      </trkpt>
      <trkpt lat="44.09605" lon="7.36176">
        <ele>1991</ele>
        <time>2013-08-28T11:09:26Z</time>
      </trkpt>
      <trkpt lat="44.09618" lon="7.36178">
        <ele>1976</ele>
        <time>2013-08-28T11:09:28Z</time>
      </trkpt>
      <trkpt lat="44.09633" lon="7.36178">
        <ele>1962</ele>
        <time>2013-08-28T11:09:31Z</time>
      </trkpt>
      <trkpt lat="44.09646" lon="7.36178">
        <ele>1950</ele>
        <time>2013-08-28T11:09:33Z</time>
      </trkpt>
      <trkpt lat="44.09655" lon="7.3618">
        <ele>1940</ele>
        <time>2013-08-28T11:09:35Z</time>
      </trkpt>
      <trkpt lat="44.09664" lon="7.36186">
        <ele>1928</ele>
        <time>2013-08-28T11:09:38Z</time>
      </trkpt>
      <trkpt lat="44.09673" lon="7.36191">
        <ele>1914</ele>
        <time>2013-08-28T11:09:43Z</time>
      </trkpt>
      <trkpt lat="44.09684" lon="7.36195">
        <ele>1896</ele>
        <time>2013-08-28T11:09:52Z</time>
      </trkpt>
      <trkpt lat="44.09676" lon="7.36192">
        <ele>1896</ele>
        <time>2013-08-28T11:09:59Z</time>
      </trkpt>
      <trkpt lat="44.09666" lon="7.36186">
        <ele>1896</ele>
        <time>2013-08-28T11:10:09Z</time>
      </trkpt>
      <trkpt lat="44.09657" lon="7.36181">
        <ele>1896</ele>
        <time>2013-08-28T11:10:24Z</time>
      </trkpt>
      <trkpt lat="44.0965" lon="7.36171">
        <ele>1896</ele>
        <time>2013-08-28T11:10:30Z</time>
      </trkpt>
      <trkpt lat="44.09647" lon="7.36159">
        <ele>1885</ele>
        <time>2013-08-28T11:10:39Z</time>
      </trkpt>
      <trkpt lat="44.09642" lon="7.36148">
        <ele>1870</ele>
        <time>2013-08-28T11:11:04Z</time>
      </trkpt>
      <trkpt lat="44.09635" lon="7.36138">
        <ele>1864</ele>
        <time>2013-08-28T11:11:32Z</time>
      </trkpt>
      <trkpt lat="44.09629" lon="7.36128">
        <ele>1870</ele>
        <time>2013-08-28T11:11:38Z</time>
      </trkpt>
      <trkpt lat="44.09622" lon="7.36121">
        <ele>1878</ele>
        <time>2013-08-28T11:11:48Z</time>
      </trkpt>
      <trkpt lat="44.09612" lon="7.36111">
        <ele>1872</ele>
        <time>2013-08-28T11:12:13Z</time>
      </trkpt>
      <trkpt lat="44.09608" lon="7.36099">
        <ele>1872</ele>
        <time>2013-08-28T11:12:21Z</time>
      </trkpt>
      <trkpt lat="44.09616" lon="7.3609">
        <ele>1872</ele>
        <time>2013-08-28T11:12:40Z</time>
      </trkpt>
      <trkpt lat="44.09617" lon="7.36078">
        <ele>1872</ele>
        <time>2013-08-28T11:12:49Z</time>
      </trkpt>
      <trkpt lat="44.09611" lon="7.36067">
        <ele>1872</ele>
        <time>2013-08-28T11:12:55Z</time>
      </trkpt>
      <trkpt lat="44.09607" lon="7.36054">
        <ele>1878</ele>
        <time>2013-08-28T11:13:03Z</time>
      </trkpt>
      <trkpt lat="44.096" lon="7.36044">
        <ele>1878</ele>
        <time>2013-08-28T11:13:21Z</time>
      </trkpt>
      <trkpt lat="44.09591" lon="7.36042">
        <ele>1887</ele>
        <time>2013-08-28T11:13:27Z</time>
      </trkpt>
      <trkpt lat="44.09593" lon="7.36029">
        <ele>1887</ele>
        <time>2013-08-28T11:13:47Z</time>
      </trkpt>
      <trkpt lat="44.09587" lon="7.3602">
        <ele>1887</ele>
        <time>2013-08-28T11:14:01Z</time>
      </trkpt>
      <trkpt lat="44.09576" lon="7.36017">
        <ele>1887</ele>
        <time>2013-08-28T11:14:11Z</time>
      </trkpt>
      <trkpt lat="44.09568" lon="7.36012">
        <ele>1887</ele>
        <time>2013-08-28T11:14:16Z</time>
      </trkpt>
      <trkpt lat="44.09558" lon="7.36013">
        <ele>1892</ele>
        <time>2013-08-28T11:14:26Z</time>
      </trkpt>
      <trkpt lat="44.09549" lon="7.3601">
        <ele>1892</ele>
        <time>2013-08-28T11:14:33Z</time>
      </trkpt>
      <trkpt lat="44.09539" lon="7.36007">
        <ele>1892</ele>
        <time>2013-08-28T11:14:48Z</time>
      </trkpt>
      <trkpt lat="44.09541" lon="7.35994">
        <ele>1883</ele>
        <time>2013-08-28T11:15:16Z</time>
      </trkpt>
      <trkpt lat="44.0955" lon="7.35991">
        <ele>1866</ele>
        <time>2013-08-28T11:16:02Z</time>
      </trkpt>
      <trkpt lat="44.09558" lon="7.35985">
        <ele>1866</ele>
        <time>2013-08-28T11:16:17Z</time>
      </trkpt>
      <trkpt lat="44.09567" lon="7.35982">
        <ele>1866</ele>
        <time>2013-08-28T11:16:38Z</time>
      </trkpt>
      <trkpt lat="44.09567" lon="7.35969">
        <ele>1866</ele>
        <time>2013-08-28T11:17:02Z</time>
      </trkpt>
      <trkpt lat="44.09569" lon="7.35982">
        <ele>1866</ele>
        <time>2013-08-28T11:17:10Z</time>
      </trkpt>
      <trkpt lat="44.09569" lon="7.35968">
        <ele>1866</ele>
        <time>2013-08-28T11:17:26Z</time>
      </trkpt>
      <trkpt lat="44.09577" lon="7.35962">
        <ele>1866</ele>
        <time>2013-08-28T11:17:31Z</time>
      </trkpt>
      <trkpt lat="44.09578" lon="7.35949">
        <ele>1878</ele>
        <time>2013-08-28T11:18:00Z</time>
      </trkpt>
      <trkpt lat="44.09584" lon="7.3594">
        <ele>1878</ele>
        <time>2013-08-28T11:18:08Z</time>
      </trkpt>
      <trkpt lat="44.09592" lon="7.35933">
        <ele>1878</ele>
        <time>2013-08-28T11:18:16Z</time>
      </trkpt>
      <trkpt lat="44.09599" lon="7.35924">
        <ele>1870</ele>
        <time>2013-08-28T11:18:34Z</time>
      </trkpt>
      <trkpt lat="44.096" lon="7.35911">
        <ele>1870</ele>
        <time>2013-08-28T11:19:04Z</time>
      </trkpt>
      <trkpt lat="44.09608" lon="7.35904">
        <ele>1865</ele>
        <time>2013-08-28T11:19:12Z</time>
      </trkpt>
      <trkpt lat="44.09607" lon="7.35892">
        <ele>1865</ele>
        <time>2013-08-28T11:19:23Z</time>
      </trkpt>
      <trkpt lat="44.09599" lon="7.35886">
        <ele>1865</ele>
        <time>2013-08-28T11:19:34Z</time>
      </trkpt>
      <trkpt lat="44.09592" lon="7.35878">
        <ele>1873</ele>
        <time>2013-08-28T11:19:44Z</time>
      </trkpt>
      <trkpt lat="44.09588" lon="7.35867">
        <ele>1873</ele>
        <time>2013-08-28T11:19:55Z</time>
      </trkpt>
      <trkpt lat="44.09588" lon="7.35852">
        <ele>1873</ele>
        <time>2013-08-28T11:20:11Z</time>
      </trkpt>
      <trkpt lat="44.09582" lon="7.35842">
        <ele>1873</ele>
        <time>2013-08-28T11:20:24Z</time>
      </trkpt>
      <trkpt lat="44.09587" lon="7.35832">
        <ele>1873</ele>
        <time>2013-08-28T11:20:43Z</time>
      </trkpt>
      <trkpt lat="44.09587" lon="7.35819">
        <ele>1873</ele>
        <time>2013-08-28T11:20:51Z</time>
      </trkpt>
      <trkpt lat="44.09587" lon="7.35807">
        <ele>1873</ele>
        <time>2013-08-28T11:21:06Z</time>
      </trkpt>
      <trkpt lat="44.09589" lon="7.35794">
        <ele>1873</ele>
        <time>2013-08-28T11:21:35Z</time>
      </trkpt>
      <trkpt lat="44.09594" lon="7.35784">
        <ele>1873</ele>
        <time>2013-08-28T11:22:01Z</time>
      </trkpt>
      <trkpt lat="44.09593" lon="7.35771">
        <ele>1873</ele>
        <time>2013-08-28T11:22:26Z</time>
      </trkpt>
      <trkpt lat="44.09602" lon="7.35768">
        <ele>1867</ele>
        <time>2013-08-28T11:22:35Z</time>
      </trkpt>
      <trkpt lat="44.09602" lon="7.35755">
        <ele>1867</ele>
        <time>2013-08-28T11:22:48Z</time>
      </trkpt>
      <trkpt lat="44.09599" lon="7.35744">
        <ele>1867</ele>
        <time>2013-08-28T11:23:01Z</time>
      </trkpt>
      <trkpt lat="44.09593" lon="7.35735">
        <ele>1867</ele>
        <time>2013-08-28T11:23:14Z</time>
      </trkpt>
      <trkpt lat="44.09593" lon="7.35722">
        <ele>1867</ele>
        <time>2013-08-28T11:23:27Z</time>
      </trkpt>
      <trkpt lat="44.09588" lon="7.35712">
        <ele>1867</ele>
        <time>2013-08-28T11:23:36Z</time>
      </trkpt>
      <trkpt lat="44.09585" lon="7.357">
        <ele>1867</ele>
        <time>2013-08-28T11:23:48Z</time>
      </trkpt>
    </trkseg>
  </trk>
</gpx>